SIA231 WSSS-YSSY
Flight info
| Callsign | SIA231 |
|---|---|
| Flight time | 8h 0m |
| Altitude | 35000 |
| Route | IDBUD1B IDBUD T24 SURGA M635 ATMAP A576 TATUK/N0488F370 A576 APOMA Y52 VELGI Y105 TARAL Y59 RIVET |
| Aircraft | B77W/H-SDE1E2E3FGHIJ2J3J4J5M1RWXY/LB1D1 |
Departure
| Time | 2026-05-07 12:52 |
|---|---|
| Airport | Singapore Changi Airport (WSSS) |
Arrival
| Time | 2026-05-07 20:53 |
|---|---|
| Airport | Sydney Kingsford Smith International Airport (YSSY) |
| Time | Latitude | Longitude | Altitude | Speed | Heading |
|---|---|---|---|---|---|
| 2026-05-07 12:32 | 1.36190 | 103.99500 | 30 ft | 0 kts | 112° |
| 2026-05-07 12:40 | 1.36193 | 103.99493 | 29 ft | 0 kts | 112° |
| 2026-05-07 12:40 | 1.36197 | 103.99484 | 29 ft | 3 kts | 112° |
| 2026-05-07 12:41 | 1.36204 | 103.99467 | 28 ft | 3 kts | 112° |
| 2026-05-07 12:41 | 1.36211 | 103.99449 | 27 ft | 3 kts | 127° |
| 2026-05-07 12:41 | 1.36226 | 103.99436 | 26 ft | 3 kts | 163° |
| 2026-05-07 12:41 | 1.36246 | 103.99434 | 28 ft | 3 kts | 201° |
| 2026-05-07 12:42 | 1.36248 | 103.99435 | 26 ft | 0 kts | 203° |
| 2026-05-07 12:45 | 1.36217 | 103.99418 | 27 ft | 13 kts | 208° |
| 2026-05-07 12:45 | 1.36159 | 103.99386 | 29 ft | 0 kts | 206° |
| 2026-05-07 12:45 | 1.36129 | 103.99373 | 29 ft | 13 kts | 204° |
| 2026-05-07 12:45 | 1.36023 | 103.99356 | 29 ft | 17 kts | 153° |
| 2026-05-07 12:46 | 1.35990 | 103.99408 | 29 ft | 0 kts | 114° |
| 2026-05-07 12:47 | 1.35976 | 103.99439 | 29 ft | 14 kts | 113° |
| 2026-05-07 12:48 | 1.35934 | 103.99554 | 30 ft | 21 kts | 90° |
| 2026-05-07 12:48 | 1.36039 | 103.99640 | 30 ft | 21 kts | 22° |
| 2026-05-07 12:48 | 1.36173 | 103.99694 | 30 ft | 21 kts | 22° |
| 2026-05-07 12:48 | 1.36255 | 103.99760 | 30 ft | 0 kts | 99° |
| 2026-05-07 12:49 | 1.36247 | 103.99773 | 31 ft | 0 kts | 121° |
| 2026-05-07 12:50 | 1.36236 | 103.99794 | 31 ft | 7 kts | 118° |
| 2026-05-07 12:50 | 1.36210 | 103.99838 | 31 ft | 10 kts | 128° |
| 2026-05-07 12:50 | 1.36124 | 103.99865 | 32 ft | 15 kts | 199° |
| 2026-05-07 12:50 | 1.36115 | 103.99861 | 32 ft | 0 kts | 201° |
| 2026-05-07 12:51 | 1.36075 | 103.99845 | 31 ft | 31 kts | 202° |
| 2026-05-07 12:51 | 1.35669 | 103.99675 | 35 ft | 101 kts | 202° |
| 2026-05-07 12:51 | 1.34841 | 103.99324 | 35 ft | 165 kts | 202° |
| 2026-05-07 12:51 | 1.33626 | 103.98824 | 126 ft | 210 kts | 202° |
| 2026-05-07 12:52 | 1.32822 | 103.98498 | 567 ft | 208 kts | 202° |
| 2026-05-07 12:52 | 1.31116 | 103.97803 | 1395 ft | 218 kts | 203° |
| 2026-05-07 12:52 | 1.29697 | 103.97185 | 2045 ft | 226 kts | 203° |
| 2026-05-07 12:52 | 1.28234 | 103.96554 | 2406 ft | 231 kts | 202° |
| 2026-05-07 12:53 | 1.26708 | 103.96046 | 2585 ft | 236 kts | 184° |
| 2026-05-07 12:53 | 1.25617 | 103.96128 | 2707 ft | 238 kts | 162° |
| 2026-05-07 12:53 | 1.23974 | 103.97279 | 3060 ft | 239 kts | 124° |
| 2026-05-07 12:53 | 1.23446 | 103.98246 | 3223 ft | 240 kts | 114° |
| 2026-05-07 12:54 | 1.22827 | 103.99795 | 3534 ft | 242 kts | 111° |
| 2026-05-07 12:54 | 1.22285 | 104.01266 | 3843 ft | 243 kts | 110° |
| 2026-05-07 12:54 | 1.21797 | 104.02604 | 4146 ft | 243 kts | 110° |
| 2026-05-07 12:54 | 1.21232 | 104.04171 | 4475 ft | 245 kts | 110° |
| 2026-05-07 12:55 | 1.20662 | 104.05767 | 4799 ft | 245 kts | 110° |
| 2026-05-07 12:55 | 1.20127 | 104.07268 | 5090 ft | 246 kts | 110° |
| 2026-05-07 12:55 | 1.19548 | 104.08822 | 5401 ft | 246 kts | 117° |
| 2026-05-07 12:55 | 1.18507 | 104.10017 | 5486 ft | 249 kts | 149° |
| 2026-05-07 12:56 | 1.16974 | 104.10833 | 5600 ft | 258 kts | 152° |
| 2026-05-07 12:56 | 1.15451 | 104.11679 | 5759 ft | 269 kts | 149° |
| 2026-05-07 12:56 | 1.14262 | 104.12400 | 5843 ft | 280 kts | 147° |
| 2026-05-07 12:56 | 1.12889 | 104.13287 | 6090 ft | 286 kts | 146° |
| 2026-05-07 12:57 | 1.11436 | 104.14276 | 6405 ft | 291 kts | 145° |
| 2026-05-07 12:57 | 1.09844 | 104.15404 | 6802 ft | 295 kts | 144° |
| 2026-05-07 12:57 | 1.08722 | 104.16221 | 7065 ft | 298 kts | 143° |
| 2026-05-07 12:57 | 1.07586 | 104.17063 | 7390 ft | 298 kts | 143° |
| 2026-05-07 12:58 | 1.05920 | 104.18317 | 7861 ft | 300 kts | 142° |
| 2026-05-07 12:58 | 1.04255 | 104.19588 | 8327 ft | 302 kts | 142° |
| 2026-05-07 12:58 | 1.02664 | 104.20813 | 8744 ft | 304 kts | 141° |
| 2026-05-07 12:58 | 1.00986 | 104.22114 | 9183 ft | 306 kts | 141° |
| 2026-05-07 12:59 | 0.99306 | 104.23421 | 9626 ft | 309 kts | 141° |
| 2026-05-07 12:59 | 0.97604 | 104.24748 | 10016 ft | 312 kts | 141° |
| 2026-05-07 12:59 | 0.95899 | 104.26081 | 10114 ft | 326 kts | 141° |
| 2026-05-07 12:59 | 0.94072 | 104.27510 | 10219 ft | 340 kts | 141° |
| 2026-05-07 13:00 | 0.92172 | 104.28996 | 10363 ft | 355 kts | 141° |
| 2026-05-07 13:00 | 0.90192 | 104.30546 | 10500 ft | 368 kts | 141° |
| 2026-05-07 13:00 | 0.88148 | 104.32145 | 10762 ft | 377 kts | 141° |
| 2026-05-07 13:00 | 0.86076 | 104.33767 | 11147 ft | 382 kts | 141° |
| 2026-05-07 13:01 | 0.83973 | 104.35412 | 11616 ft | 385 kts | 141° |
| 2026-05-07 13:01 | 0.81862 | 104.37064 | 12100 ft | 387 kts | 141° |
| 2026-05-07 13:01 | 0.79738 | 104.38726 | 12560 ft | 389 kts | 141° |
| 2026-05-07 13:01 | 0.77595 | 104.40403 | 12999 ft | 392 kts | 141° |
| 2026-05-07 13:02 | 0.75454 | 104.42079 | 13433 ft | 395 kts | 140° |
| 2026-05-07 13:02 | 0.73282 | 104.43779 | 13847 ft | 398 kts | 140° |
| 2026-05-07 13:02 | 0.71096 | 104.45489 | 14239 ft | 400 kts | 140° |
| 2026-05-07 13:02 | 0.68905 | 104.47204 | 14656 ft | 402 kts | 140° |
| 2026-05-07 13:03 | 0.66696 | 104.48933 | 15033 ft | 404 kts | 140° |
| 2026-05-07 13:03 | 0.64477 | 104.50669 | 15399 ft | 406 kts | 140° |
| 2026-05-07 13:03 | 0.62250 | 104.52412 | 15774 ft | 409 kts | 140° |
| 2026-05-07 13:03 | 0.60000 | 104.54174 | 16147 ft | 411 kts | 140° |
| 2026-05-07 13:04 | 0.57742 | 104.55941 | 16524 ft | 413 kts | 140° |
| 2026-05-07 13:04 | 0.55466 | 104.57722 | 16889 ft | 416 kts | 140° |
| 2026-05-07 13:04 | 0.53218 | 104.59482 | 17242 ft | 418 kts | 140° |
| 2026-05-07 13:04 | 0.50951 | 104.61256 | 17596 ft | 420 kts | 140° |
| 2026-05-07 13:05 | 0.48732 | 104.63133 | 17930 ft | 421 kts | 134° |
| 2026-05-07 13:05 | 0.46759 | 104.65308 | 18229 ft | 422 kts | 127° |
| 2026-05-07 13:05 | 0.45034 | 104.67678 | 18523 ft | 423 kts | 120° |
| 2026-05-07 13:05 | 0.43548 | 104.70221 | 18823 ft | 424 kts | 118° |
| 2026-05-07 13:06 | 0.42089 | 104.72789 | 19091 ft | 426 kts | 118° |
| 2026-05-07 13:06 | 0.40623 | 104.75368 | 19384 ft | 428 kts | 118° |
| 2026-05-07 13:06 | 0.39133 | 104.77978 | 19676 ft | 430 kts | 118° |
| 2026-05-07 13:06 | 0.37667 | 104.80531 | 19950 ft | 432 kts | 118° |
| 2026-05-07 13:07 | 0.36160 | 104.83147 | 20234 ft | 434 kts | 118° |
| 2026-05-07 13:07 | 0.34646 | 104.85768 | 20511 ft | 436 kts | 118° |
| 2026-05-07 13:07 | 0.33123 | 104.88401 | 20770 ft | 439 kts | 118° |
| 2026-05-07 13:07 | 0.31590 | 104.91053 | 21052 ft | 441 kts | 118° |
| 2026-05-07 13:08 | 0.30053 | 104.93711 | 21324 ft | 443 kts | 118° |
| 2026-05-07 13:08 | 0.28511 | 104.96378 | 21590 ft | 444 kts | 118° |
| 2026-05-07 13:08 | 0.26979 | 104.99029 | 21853 ft | 446 kts | 118° |
| 2026-05-07 13:08 | 0.25420 | 105.01724 | 22104 ft | 448 kts | 118° |
| 2026-05-07 13:09 | 0.23856 | 105.04429 | 22360 ft | 450 kts | 118° |
| 2026-05-07 13:09 | 0.22287 | 105.07141 | 22615 ft | 452 kts | 118° |
| 2026-05-07 13:09 | 0.20705 | 105.09874 | 22839 ft | 454 kts | 118° |
| 2026-05-07 13:09 | 0.19169 | 105.12529 | 23079 ft | 456 kts | 118° |
| 2026-05-07 13:10 | 0.17580 | 105.15277 | 23313 ft | 458 kts | 118° |
| 2026-05-07 13:10 | 0.15980 | 105.18042 | 23523 ft | 460 kts | 118° |
| 2026-05-07 13:10 | 0.14380 | 105.20809 | 23729 ft | 461 kts | 118° |
| 2026-05-07 13:10 | 0.12775 | 105.23583 | 23930 ft | 462 kts | 118° |
| 2026-05-07 13:11 | 0.11182 | 105.26338 | 24134 ft | 463 kts | 118° |
| 2026-05-07 13:11 | 0.09564 | 105.29135 | 24341 ft | 464 kts | 118° |
| 2026-05-07 13:11 | 0.07944 | 105.31937 | 24550 ft | 466 kts | 119° |
| 2026-05-07 13:11 | 0.06317 | 105.34749 | 24729 ft | 467 kts | 119° |
| 2026-05-07 13:12 | 0.04732 | 105.37490 | 24914 ft | 468 kts | 119° |
| 2026-05-07 13:12 | 0.03059 | 105.40383 | 25102 ft | 470 kts | 119° |
| 2026-05-07 13:12 | 0.01483 | 105.43108 | 25278 ft | 471 kts | 119° |
| 2026-05-07 13:12 | -0.00159 | 105.45947 | 25464 ft | 472 kts | 119° |
| 2026-05-07 13:13 | -0.01801 | 105.48786 | 25648 ft | 474 kts | 119° |
| 2026-05-07 13:13 | -0.03448 | 105.51634 | 25836 ft | 475 kts | 119° |
| 2026-05-07 13:13 | -0.05107 | 105.54502 | 26009 ft | 476 kts | 119° |
| 2026-05-07 13:13 | -0.06764 | 105.57368 | 26181 ft | 477 kts | 119° |
| 2026-05-07 13:14 | -0.08432 | 105.60252 | 26348 ft | 479 kts | 119° |
| 2026-05-07 13:14 | -0.10089 | 105.63115 | 26512 ft | 480 kts | 119° |
| 2026-05-07 13:14 | -0.11708 | 105.65916 | 26664 ft | 481 kts | 119° |
| 2026-05-07 13:14 | -0.13399 | 105.68840 | 26834 ft | 482 kts | 119° |
| 2026-05-07 13:15 | -0.15063 | 105.71717 | 26987 ft | 484 kts | 119° |
| 2026-05-07 13:15 | -0.16752 | 105.74638 | 27154 ft | 485 kts | 119° |
| 2026-05-07 13:15 | -0.18432 | 105.77542 | 27302 ft | 486 kts | 119° |
| 2026-05-07 13:15 | -0.20123 | 105.80467 | 27469 ft | 487 kts | 119° |
| 2026-05-07 13:16 | -0.21821 | 105.83402 | 27595 ft | 488 kts | 119° |
| 2026-05-07 13:16 | -0.23516 | 105.86333 | 27736 ft | 490 kts | 119° |
| 2026-05-07 13:16 | -0.25214 | 105.89270 | 27868 ft | 491 kts | 119° |
| 2026-05-07 13:16 | -0.26894 | 105.92174 | 27999 ft | 492 kts | 119° |
| 2026-05-07 13:17 | -0.28621 | 105.95160 | 28130 ft | 493 kts | 119° |
| 2026-05-07 13:17 | -0.30343 | 105.98137 | 28261 ft | 494 kts | 119° |
| 2026-05-07 13:17 | -0.32009 | 106.01019 | 28372 ft | 495 kts | 119° |
| 2026-05-07 13:17 | -0.33735 | 106.04004 | 28476 ft | 496 kts | 119° |
| 2026-05-07 13:18 | -0.37147 | 106.09905 | 28687 ft | 498 kts | 119° |
| 2026-05-07 13:18 | -0.38885 | 106.12910 | 28796 ft | 499 kts | 119° |
| 2026-05-07 13:18 | -0.40614 | 106.15899 | 28899 ft | 500 kts | 119° |
| 2026-05-07 13:19 | -0.42357 | 106.18914 | 29001 ft | 501 kts | 119° |
| 2026-05-07 13:19 | -0.44102 | 106.21931 | 29151 ft | 501 kts | 119° |
| 2026-05-07 13:19 | -0.45841 | 106.24939 | 29330 ft | 500 kts | 119° |
| 2026-05-07 13:19 | -0.47561 | 106.27914 | 29474 ft | 500 kts | 119° |
| 2026-05-07 13:20 | -0.49267 | 106.30863 | 29615 ft | 500 kts | 119° |
| 2026-05-07 13:20 | -0.50940 | 106.33758 | 29733 ft | 500 kts | 119° |
| 2026-05-07 13:20 | -0.52533 | 106.36514 | 29860 ft | 500 kts | 119° |
| 2026-05-07 13:20 | -0.54275 | 106.39527 | 29942 ft | 501 kts | 119° |
| 2026-05-07 13:21 | -0.57633 | 106.45337 | 30067 ft | 503 kts | 119° |
| 2026-05-07 13:21 | -0.60974 | 106.51023 | 30200 ft | 504 kts | 122° |
| 2026-05-07 13:22 | -0.65123 | 106.56334 | 30317 ft | 507 kts | 131° |
| 2026-05-07 13:22 | -0.69522 | 106.61189 | 30437 ft | 508 kts | 131° |
| 2026-05-07 13:23 | -0.74156 | 106.66337 | 30564 ft | 509 kts | 130° |
| 2026-05-07 13:23 | -0.78822 | 106.71574 | 30688 ft | 509 kts | 130° |
| 2026-05-07 13:24 | -0.83449 | 106.76789 | 30778 ft | 510 kts | 130° |
| 2026-05-07 13:24 | -0.88168 | 106.82109 | 30876 ft | 511 kts | 130° |
| 2026-05-07 13:25 | -0.92890 | 106.87428 | 30963 ft | 512 kts | 130° |
| 2026-05-07 13:25 | -0.97604 | 106.92737 | 31039 ft | 513 kts | 130° |
| 2026-05-07 13:26 | -1.02339 | 106.98070 | 31117 ft | 513 kts | 130° |
| 2026-05-07 13:26 | -1.07000 | 107.03320 | 31196 ft | 514 kts | 130° |
| 2026-05-07 13:27 | -1.11748 | 107.08669 | 31278 ft | 514 kts | 130° |
| 2026-05-07 13:27 | -1.16470 | 107.13989 | 31359 ft | 514 kts | 130° |
| 2026-05-07 13:28 | -1.21220 | 107.19340 | 31406 ft | 515 kts | 130° |
| 2026-05-07 13:28 | -1.25979 | 107.24703 | 31459 ft | 515 kts | 130° |
| 2026-05-07 13:29 | -1.30744 | 107.30073 | 31501 ft | 516 kts | 130° |
| 2026-05-07 13:29 | -1.35516 | 107.35451 | 31566 ft | 516 kts | 130° |
| 2026-05-07 13:30 | -1.40213 | 107.40800 | 31603 ft | 516 kts | 129° |
| 2026-05-07 13:30 | -1.44827 | 107.46170 | 31746 ft | 514 kts | 129° |
| 2026-05-07 13:31 | -1.49474 | 107.51585 | 31754 ft | 515 kts | 129° |
| 2026-05-07 13:31 | -1.51795 | 107.54284 | 32013 ft | 507 kts | 129° |
| 2026-05-07 13:31 | -1.54074 | 107.56927 | 32501 ft | 497 kts | 129° |
| 2026-05-07 13:32 | -1.56317 | 107.59528 | 32951 ft | 489 kts | 129° |
| 2026-05-07 13:32 | -1.58519 | 107.62082 | 33398 ft | 480 kts | 129° |
| 2026-05-07 13:32 | -1.60686 | 107.64594 | 33849 ft | 471 kts | 129° |
| 2026-05-07 13:32 | -1.62780 | 107.67023 | 34184 ft | 464 kts | 129° |
| 2026-05-07 13:33 | -1.67028 | 107.71955 | 33920 ft | 475 kts | 129° |
| 2026-05-07 13:33 | -1.71243 | 107.76846 | 34144 ft | 470 kts | 129° |
| 2026-05-07 13:34 | -1.73149 | 107.79057 | 34385 ft | 465 kts | 129° |
| 2026-05-07 13:34 | -1.74416 | 107.80528 | 34398 ft | 466 kts | 129° |
| 2026-05-07 13:35 | -1.78245 | 107.84972 | 34077 ft | 476 kts | 129° |
| 2026-05-07 13:35 | -1.81453 | 107.88696 | 34033 ft | 480 kts | 129° |
| 2026-05-07 13:36 | -1.85441 | 107.93325 | 33963 ft | 483 kts | 129° |
| 2026-05-07 13:36 | -1.89656 | 107.98218 | 33724 ft | 492 kts | 129° |
| 2026-05-07 13:36 | -1.91888 | 108.00810 | 33399 ft | 500 kts | 129° |
| 2026-05-07 13:37 | -1.94173 | 108.03463 | 33123 ft | 507 kts | 129° |
| 2026-05-07 13:37 | -1.96386 | 108.06032 | 32920 ft | 512 kts | 129° |
| 2026-05-07 13:37 | -1.98719 | 108.08740 | 32777 ft | 515 kts | 129° |
| 2026-05-07 13:38 | -2.03383 | 108.14156 | 32745 ft | 515 kts | 129° |
| 2026-05-07 13:38 | -2.07954 | 108.19459 | 32757 ft | 515 kts | 129° |
| 2026-05-07 13:39 | -2.12626 | 108.24867 | 32767 ft | 515 kts | 129° |
| 2026-05-07 13:39 | -2.17306 | 108.30286 | 32767 ft | 515 kts | 129° |
| 2026-05-07 13:40 | -2.21936 | 108.35651 | 32768 ft | 515 kts | 129° |
| 2026-05-07 13:40 | -2.26517 | 108.40962 | 32764 ft | 515 kts | 129° |
| 2026-05-07 13:41 | -2.30997 | 108.46155 | 32775 ft | 515 kts | 130° |
| 2026-05-07 13:41 | -2.35578 | 108.51465 | 32771 ft | 515 kts | 130° |
| 2026-05-07 13:42 | -2.40253 | 108.56884 | 32761 ft | 514 kts | 129° |
| 2026-05-07 13:42 | -2.44922 | 108.62300 | 32765 ft | 514 kts | 129° |
| 2026-05-07 13:43 | -2.49590 | 108.67712 | 32761 ft | 513 kts | 130° |
| 2026-05-07 13:43 | -2.54248 | 108.73093 | 32760 ft | 513 kts | 130° |
| 2026-05-07 13:44 | -2.58859 | 108.78414 | 32777 ft | 514 kts | 129° |
| 2026-05-07 13:44 | -2.63541 | 108.83821 | 32771 ft | 513 kts | 130° |
| 2026-05-07 13:45 | -2.68213 | 108.89219 | 32775 ft | 512 kts | 129° |
| 2026-05-07 13:45 | -2.72874 | 108.94606 | 32760 ft | 512 kts | 130° |
| 2026-05-07 13:46 | -2.77513 | 108.99969 | 32761 ft | 512 kts | 130° |
| 2026-05-07 13:46 | -2.82172 | 109.05355 | 32764 ft | 511 kts | 129° |
| 2026-05-07 13:47 | -2.86755 | 109.10655 | 32761 ft | 511 kts | 129° |
| 2026-05-07 13:47 | -2.91362 | 109.15985 | 32773 ft | 510 kts | 129° |
| 2026-05-07 13:48 | -2.95991 | 109.21363 | 32764 ft | 511 kts | 130° |
| 2026-05-07 13:48 | -3.00616 | 109.26744 | 32762 ft | 511 kts | 130° |
| 2026-05-07 13:49 | -3.05252 | 109.32136 | 32779 ft | 510 kts | 130° |
| 2026-05-07 13:49 | -3.09861 | 109.37496 | 32773 ft | 511 kts | 130° |
| 2026-05-07 13:50 | -3.14302 | 109.42661 | 32776 ft | 511 kts | 129° |
| 2026-05-07 13:50 | -3.18925 | 109.48040 | 32764 ft | 511 kts | 130° |
| 2026-05-07 13:51 | -3.23557 | 109.53428 | 32768 ft | 510 kts | 129° |
| 2026-05-07 13:51 | -3.28192 | 109.58822 | 32770 ft | 511 kts | 130° |
| 2026-05-07 13:52 | -3.32804 | 109.64189 | 32772 ft | 510 kts | 130° |
| 2026-05-07 13:52 | -3.37393 | 109.69530 | 32784 ft | 510 kts | 129° |
| 2026-05-07 13:53 | -3.41963 | 109.74851 | 32766 ft | 510 kts | 130° |
| 2026-05-07 13:53 | -3.46589 | 109.80237 | 32786 ft | 510 kts | 130° |
| 2026-05-07 13:54 | -3.51204 | 109.85612 | 32783 ft | 510 kts | 130° |
| 2026-05-07 13:54 | -3.55791 | 109.90954 | 32787 ft | 509 kts | 130° |
| 2026-05-07 13:55 | -3.60398 | 109.96321 | 32783 ft | 509 kts | 129° |
| 2026-05-07 13:55 | -3.65011 | 110.01695 | 32777 ft | 509 kts | 129° |
| 2026-05-07 13:56 | -3.69631 | 110.07081 | 32788 ft | 509 kts | 129° |
| 2026-05-07 13:56 | -3.74250 | 110.12465 | 32769 ft | 509 kts | 130° |
| 2026-05-07 13:57 | -3.78815 | 110.17785 | 32782 ft | 509 kts | 129° |
| 2026-05-07 13:57 | -3.83427 | 110.23163 | 32766 ft | 509 kts | 129° |
| 2026-05-07 13:58 | -3.88028 | 110.28529 | 32770 ft | 509 kts | 129° |
| 2026-05-07 13:58 | -3.92612 | 110.33879 | 32768 ft | 509 kts | 130° |
| 2026-05-07 13:59 | -3.97220 | 110.39263 | 32771 ft | 509 kts | 129° |
| 2026-05-07 13:59 | -4.01579 | 110.44795 | 32779 ft | 509 kts | 127° |
| 2026-05-07 14:00 | -4.05753 | 110.50330 | 32779 ft | 509 kts | 126° |
| 2026-05-07 14:00 | -4.10037 | 110.55959 | 32777 ft | 508 kts | 127° |
| 2026-05-07 14:01 | -4.14342 | 110.61551 | 32785 ft | 508 kts | 127° |
| 2026-05-07 14:01 | -4.18567 | 110.67020 | 32772 ft | 508 kts | 127° |
| 2026-05-07 14:02 | -4.22891 | 110.72621 | 32774 ft | 508 kts | 127° |
| 2026-05-07 14:02 | -4.27187 | 110.78191 | 32788 ft | 508 kts | 127° |
| 2026-05-07 14:03 | -4.31533 | 110.83831 | 32774 ft | 508 kts | 127° |
| 2026-05-07 14:03 | -4.35759 | 110.89313 | 32770 ft | 509 kts | 127° |
| 2026-05-07 14:04 | -4.40073 | 110.94911 | 32785 ft | 509 kts | 127° |
| 2026-05-07 14:04 | -4.44408 | 111.00539 | 32783 ft | 510 kts | 127° |
| 2026-05-07 14:05 | -4.48672 | 111.06074 | 32777 ft | 510 kts | 127° |
| 2026-05-07 14:05 | -4.53018 | 111.11718 | 32780 ft | 511 kts | 127° |
| 2026-05-07 14:06 | -4.57321 | 111.17308 | 32780 ft | 511 kts | 127° |
| 2026-05-07 14:06 | -4.61663 | 111.22949 | 32769 ft | 511 kts | 127° |
| 2026-05-07 14:07 | -4.65983 | 111.28534 | 32777 ft | 511 kts | 128° |
| 2026-05-07 14:07 | -4.70334 | 111.34136 | 32778 ft | 512 kts | 128° |
| 2026-05-07 14:08 | -4.74695 | 111.39757 | 32780 ft | 512 kts | 128° |
| 2026-05-07 14:08 | -4.79069 | 111.45400 | 32793 ft | 512 kts | 128° |
| 2026-05-07 14:09 | -4.83176 | 111.50702 | 32791 ft | 513 kts | 128° |
| 2026-05-07 14:09 | -4.87516 | 111.56309 | 32776 ft | 513 kts | 128° |
| 2026-05-07 14:10 | -4.91873 | 111.61937 | 32784 ft | 513 kts | 128° |
| 2026-05-07 14:10 | -4.96250 | 111.67590 | 32789 ft | 514 kts | 128° |
| 2026-05-07 14:11 | -5.00634 | 111.73256 | 32778 ft | 514 kts | 128° |
| 2026-05-07 14:11 | -5.04904 | 111.78774 | 32789 ft | 514 kts | 128° |
| 2026-05-07 14:12 | -5.09190 | 111.84315 | 32780 ft | 514 kts | 128° |
| 2026-05-07 14:12 | -5.13545 | 111.89947 | 32781 ft | 515 kts | 128° |
| 2026-05-07 14:13 | -5.17942 | 111.95635 | 32799 ft | 515 kts | 128° |
| 2026-05-07 14:13 | -5.22331 | 112.01314 | 32786 ft | 515 kts | 128° |
| 2026-05-07 14:14 | -5.26694 | 112.06959 | 32782 ft | 515 kts | 128° |
| 2026-05-07 14:14 | -5.30980 | 112.12508 | 32783 ft | 515 kts | 128° |
| 2026-05-07 14:15 | -5.35373 | 112.18196 | 32785 ft | 515 kts | 128° |
| 2026-05-07 14:15 | -5.39739 | 112.23850 | 32791 ft | 515 kts | 128° |
| 2026-05-07 14:16 | -5.44115 | 112.29520 | 32792 ft | 515 kts | 129° |
| 2026-05-07 14:16 | -5.48506 | 112.35209 | 32779 ft | 516 kts | 128° |
| 2026-05-07 14:17 | -5.52886 | 112.40888 | 32787 ft | 516 kts | 128° |
| 2026-05-07 14:17 | -5.57162 | 112.46431 | 32792 ft | 516 kts | 128° |
| 2026-05-07 14:18 | -5.61554 | 112.52128 | 32787 ft | 516 kts | 129° |
| 2026-05-07 14:18 | -5.65959 | 112.57842 | 32779 ft | 516 kts | 129° |
| 2026-05-07 14:19 | -5.70349 | 112.63537 | 32787 ft | 516 kts | 129° |
| 2026-05-07 14:19 | -5.73906 | 112.68155 | 32789 ft | 517 kts | 128° |
| 2026-05-07 14:20 | -5.78311 | 112.73874 | 32796 ft | 517 kts | 128° |
| 2026-05-07 14:20 | -5.82608 | 112.79454 | 32790 ft | 517 kts | 129° |
| 2026-05-07 14:21 | -5.86994 | 112.85152 | 32792 ft | 518 kts | 128° |
| 2026-05-07 14:21 | -5.91389 | 112.90862 | 32790 ft | 518 kts | 129° |
| 2026-05-07 14:22 | -5.96476 | 112.97476 | 32786 ft | 518 kts | 128° |
| 2026-05-07 14:22 | -6.00178 | 113.02289 | 32787 ft | 519 kts | 129° |
| 2026-05-07 14:23 | -6.04527 | 113.07946 | 32794 ft | 519 kts | 129° |
| 2026-05-07 14:23 | -6.08909 | 113.13646 | 32794 ft | 520 kts | 128° |
| 2026-05-07 14:24 | -6.13283 | 113.19339 | 32789 ft | 520 kts | 128° |
| 2026-05-07 14:24 | -6.17691 | 113.25079 | 32786 ft | 520 kts | 128° |
| 2026-05-07 14:25 | -6.22096 | 113.30808 | 32788 ft | 520 kts | 130° |
| 2026-05-07 14:25 | -6.27086 | 113.36041 | 32788 ft | 519 kts | 140° |
| 2026-05-07 14:26 | -6.32824 | 113.40365 | 32798 ft | 518 kts | 146° |
| 2026-05-07 14:26 | -6.38719 | 113.44532 | 32782 ft | 519 kts | 145° |
| 2026-05-07 14:27 | -6.44569 | 113.48715 | 32787 ft | 519 kts | 145° |
| 2026-05-07 14:27 | -6.50431 | 113.52946 | 32787 ft | 519 kts | 145° |
| 2026-05-07 14:28 | -6.56280 | 113.57177 | 32783 ft | 520 kts | 145° |
| 2026-05-07 14:28 | -6.62020 | 113.61328 | 32788 ft | 520 kts | 145° |
| 2026-05-07 14:29 | -6.67798 | 113.65504 | 32788 ft | 520 kts | 145° |
| 2026-05-07 14:29 | -6.73381 | 113.69541 | 32790 ft | 520 kts | 145° |
| 2026-05-07 14:30 | -6.79161 | 113.73722 | 32792 ft | 520 kts | 145° |
| 2026-05-07 14:30 | -6.84918 | 113.77888 | 32790 ft | 521 kts | 144° |
| 2026-05-07 14:31 | -6.90605 | 113.82004 | 32790 ft | 521 kts | 144° |
| 2026-05-07 14:31 | -6.96330 | 113.86150 | 32786 ft | 521 kts | 145° |
| 2026-05-07 14:32 | -7.02004 | 113.90260 | 32788 ft | 521 kts | 145° |
| 2026-05-07 14:32 | -7.07535 | 113.94264 | 32789 ft | 521 kts | 145° |
| 2026-05-07 14:33 | -7.13311 | 113.98448 | 32791 ft | 522 kts | 145° |
| 2026-05-07 14:33 | -7.19207 | 114.02723 | 32790 ft | 522 kts | 145° |
| 2026-05-07 14:34 | -7.25024 | 114.06942 | 32793 ft | 522 kts | 145° |
| 2026-05-07 14:34 | -7.30760 | 114.11104 | 32783 ft | 523 kts | 145° |
| 2026-05-07 14:35 | -7.35919 | 114.14848 | 32787 ft | 523 kts | 145° |
| 2026-05-07 14:35 | -7.41826 | 114.19136 | 32794 ft | 524 kts | 146° |
| 2026-05-07 14:36 | -7.47752 | 114.23439 | 32803 ft | 524 kts | 145° |
| 2026-05-07 14:36 | -7.53389 | 114.27533 | 32800 ft | 525 kts | 145° |
| 2026-05-07 14:37 | -7.59165 | 114.31731 | 32795 ft | 525 kts | 145° |
| 2026-05-07 14:37 | -7.67891 | 114.38075 | 32806 ft | 526 kts | 145° |
| 2026-05-07 14:38 | -7.73605 | 114.42231 | 32806 ft | 527 kts | 145° |
| 2026-05-07 14:38 | -7.79173 | 114.46281 | 32813 ft | 527 kts | 145° |
| 2026-05-07 14:39 | -7.84947 | 114.50484 | 32812 ft | 528 kts | 145° |
| 2026-05-07 14:39 | -7.90530 | 114.54548 | 32820 ft | 528 kts | 145° |
| 2026-05-07 14:40 | -7.96131 | 114.58628 | 32813 ft | 528 kts | 145° |
| 2026-05-07 14:40 | -8.01745 | 114.62717 | 32825 ft | 529 kts | 145° |
| 2026-05-07 14:41 | -8.07514 | 114.66922 | 32821 ft | 529 kts | 145° |
| 2026-05-07 14:41 | -8.12881 | 114.70835 | 32821 ft | 529 kts | 145° |
| 2026-05-07 14:42 | -8.18539 | 114.74961 | 32825 ft | 529 kts | 145° |
| 2026-05-07 14:42 | -8.23766 | 114.78775 | 32831 ft | 529 kts | 145° |
| 2026-05-07 14:43 | -8.29726 | 114.83124 | 32840 ft | 529 kts | 145° |
| 2026-05-07 14:43 | -8.35602 | 114.87415 | 32835 ft | 529 kts | 145° |
| 2026-05-07 14:44 | -8.41567 | 114.91772 | 32846 ft | 529 kts | 145° |
| 2026-05-07 14:44 | -8.47540 | 114.96136 | 32842 ft | 529 kts | 145° |
| 2026-05-07 14:45 | -8.53502 | 115.00494 | 32830 ft | 529 kts | 145° |
| 2026-05-07 14:45 | -8.59445 | 115.04841 | 32826 ft | 528 kts | 145° |
| 2026-05-07 14:46 | -8.65417 | 115.09210 | 32820 ft | 528 kts | 145° |
| 2026-05-07 14:46 | -8.71365 | 115.13564 | 32818 ft | 528 kts | 145° |
| 2026-05-07 14:47 | -8.77143 | 115.18076 | 32814 ft | 529 kts | 139° |
| 2026-05-07 14:47 | -8.82523 | 115.23147 | 32822 ft | 529 kts | 137° |
| 2026-05-07 14:48 | -8.87883 | 115.28261 | 32819 ft | 529 kts | 138° |
| 2026-05-07 14:48 | -8.93258 | 115.33348 | 32832 ft | 529 kts | 138° |
| 2026-05-07 14:49 | -8.98653 | 115.38421 | 32826 ft | 529 kts | 139° |
| 2026-05-07 14:49 | -9.04051 | 115.43491 | 32832 ft | 530 kts | 139° |
| 2026-05-07 14:50 | -9.09453 | 115.48569 | 32828 ft | 530 kts | 139° |
| 2026-05-07 14:50 | -9.14861 | 115.53657 | 32829 ft | 531 kts | 139° |
| 2026-05-07 14:51 | -9.20268 | 115.58748 | 32832 ft | 531 kts | 139° |
| 2026-05-07 14:51 | -9.25685 | 115.63850 | 32822 ft | 532 kts | 139° |
| 2026-05-07 14:52 | -9.31100 | 115.68954 | 32842 ft | 531 kts | 138° |
| 2026-05-07 14:52 | -9.36481 | 115.74025 | 32825 ft | 531 kts | 138° |
| 2026-05-07 14:53 | -9.41897 | 115.79133 | 32821 ft | 532 kts | 139° |
| 2026-05-07 14:53 | -9.47305 | 115.84237 | 32832 ft | 531 kts | 139° |
| 2026-05-07 14:54 | -9.52716 | 115.89345 | 32843 ft | 531 kts | 138° |
| 2026-05-07 14:54 | -9.58118 | 115.94446 | 32829 ft | 531 kts | 139° |
| 2026-05-07 14:55 | -9.63520 | 115.99550 | 32829 ft | 530 kts | 139° |
| 2026-05-07 14:55 | -9.68912 | 116.04646 | 32830 ft | 530 kts | 139° |
| 2026-05-07 14:56 | -9.74299 | 116.09741 | 32835 ft | 529 kts | 139° |
| 2026-05-07 14:56 | -9.79676 | 116.14829 | 32827 ft | 529 kts | 139° |
| 2026-05-07 14:57 | -9.85028 | 116.19895 | 32832 ft | 529 kts | 139° |
| 2026-05-07 14:57 | -9.90423 | 116.25003 | 32841 ft | 529 kts | 139° |
| 2026-05-07 14:58 | -9.95611 | 116.29919 | 32830 ft | 529 kts | 139° |
| 2026-05-07 14:58 | -10.00997 | 116.35024 | 32832 ft | 529 kts | 139° |
| 2026-05-07 14:59 | -10.06374 | 116.40123 | 32834 ft | 529 kts | 139° |
| 2026-05-07 14:59 | -10.11707 | 116.45184 | 32831 ft | 529 kts | 139° |
| 2026-05-07 15:00 | -10.17069 | 116.50273 | 32842 ft | 530 kts | 139° |
| 2026-05-07 15:00 | -10.22456 | 116.55390 | 32843 ft | 530 kts | 139° |
| 2026-05-07 15:01 | -10.27758 | 116.60427 | 32842 ft | 530 kts | 139° |
| 2026-05-07 15:01 | -10.33169 | 116.65571 | 32835 ft | 530 kts | 139° |
| 2026-05-07 15:02 | -10.38523 | 116.70663 | 32840 ft | 530 kts | 139° |
| 2026-05-07 15:02 | -10.43885 | 116.75766 | 32842 ft | 529 kts | 139° |
| 2026-05-07 15:03 | -10.48237 | 116.79909 | 32843 ft | 529 kts | 139° |
| 2026-05-07 15:03 | -10.53605 | 116.85022 | 32839 ft | 529 kts | 139° |
| 2026-05-07 15:04 | -10.58934 | 116.90100 | 32840 ft | 529 kts | 139° |
| 2026-05-07 15:04 | -10.64280 | 116.95196 | 32843 ft | 529 kts | 139° |
| 2026-05-07 15:05 | -10.69550 | 117.00223 | 32844 ft | 529 kts | 139° |
| 2026-05-07 15:05 | -10.74909 | 117.05338 | 32843 ft | 528 kts | 139° |
| 2026-05-07 15:06 | -10.80276 | 117.10462 | 32843 ft | 529 kts | 139° |
| 2026-05-07 15:06 | -10.85641 | 117.15587 | 32846 ft | 529 kts | 139° |
| 2026-05-07 15:07 | -10.91003 | 117.20712 | 32849 ft | 529 kts | 139° |
| 2026-05-07 15:07 | -10.96292 | 117.25770 | 32848 ft | 529 kts | 139° |
| 2026-05-07 15:08 | -11.01622 | 117.30870 | 32842 ft | 529 kts | 139° |
| 2026-05-07 15:08 | -11.06979 | 117.35998 | 32846 ft | 529 kts | 139° |
| 2026-05-07 15:09 | -11.12344 | 117.41137 | 32845 ft | 529 kts | 139° |
| 2026-05-07 15:09 | -11.17705 | 117.46275 | 32847 ft | 529 kts | 139° |
| 2026-05-07 15:10 | -11.23034 | 117.51385 | 32847 ft | 529 kts | 139° |
| 2026-05-07 15:10 | -11.28391 | 117.56523 | 32846 ft | 529 kts | 139° |
| 2026-05-07 15:11 | -11.33750 | 117.61668 | 32849 ft | 528 kts | 139° |
| 2026-05-07 15:11 | -11.39105 | 117.66811 | 32858 ft | 528 kts | 139° |
| 2026-05-07 15:12 | -11.44455 | 117.71951 | 32849 ft | 528 kts | 139° |
| 2026-05-07 15:12 | -11.49770 | 117.77061 | 32855 ft | 528 kts | 139° |
| 2026-05-07 15:13 | -11.55102 | 117.82191 | 32851 ft | 527 kts | 139° |
| 2026-05-07 15:13 | -11.60361 | 117.87253 | 32850 ft | 527 kts | 139° |
| 2026-05-07 15:14 | -11.65676 | 117.92371 | 32862 ft | 527 kts | 139° |
| 2026-05-07 15:14 | -11.71003 | 117.97504 | 32840 ft | 526 kts | 139° |
| 2026-05-07 15:15 | -11.76295 | 118.02606 | 32864 ft | 526 kts | 139° |
| 2026-05-07 15:15 | -11.81555 | 118.07680 | 32861 ft | 526 kts | 139° |
| 2026-05-07 15:16 | -11.86870 | 118.12810 | 32845 ft | 526 kts | 139° |
| 2026-05-07 15:16 | -11.92181 | 118.17940 | 32866 ft | 526 kts | 139° |
| 2026-05-07 15:17 | -11.97489 | 118.23071 | 32858 ft | 526 kts | 140° |
| 2026-05-07 15:17 | -12.02802 | 118.28205 | 32852 ft | 526 kts | 140° |
| 2026-05-07 15:18 | -12.08120 | 118.33346 | 32863 ft | 525 kts | 140° |
| 2026-05-07 15:18 | -12.13415 | 118.38467 | 32864 ft | 526 kts | 140° |
| 2026-05-07 15:19 | -12.18735 | 118.43618 | 32865 ft | 526 kts | 140° |
| 2026-05-07 15:19 | -12.24043 | 118.48761 | 32872 ft | 526 kts | 140° |
| 2026-05-07 15:20 | -12.29321 | 118.53877 | 32868 ft | 526 kts | 140° |
| 2026-05-07 15:20 | -12.34638 | 118.59035 | 32866 ft | 526 kts | 140° |
| 2026-05-07 15:21 | -12.39906 | 118.64146 | 32868 ft | 526 kts | 140° |
| 2026-05-07 15:21 | -12.45223 | 118.69310 | 32871 ft | 526 kts | 140° |
| 2026-05-07 15:22 | -12.50538 | 118.74474 | 32867 ft | 527 kts | 140° |
| 2026-05-07 15:22 | -12.55850 | 118.79639 | 32870 ft | 527 kts | 140° |
| 2026-05-07 15:23 | -12.61169 | 118.84814 | 32869 ft | 527 kts | 140° |
| 2026-05-07 15:23 | -12.66475 | 118.89978 | 32871 ft | 527 kts | 140° |
| 2026-05-07 15:24 | -12.71705 | 118.95072 | 32871 ft | 527 kts | 140° |
| 2026-05-07 15:24 | -12.77020 | 119.00252 | 32872 ft | 527 kts | 140° |
| 2026-05-07 15:25 | -12.82308 | 119.05408 | 32873 ft | 527 kts | 140° |
| 2026-05-07 15:25 | -12.87621 | 119.10592 | 32875 ft | 527 kts | 140° |
| 2026-05-07 15:26 | -12.92933 | 119.15779 | 32876 ft | 527 kts | 140° |
| 2026-05-07 15:26 | -12.98248 | 119.20971 | 32875 ft | 527 kts | 140° |
| 2026-05-07 15:27 | -13.03556 | 119.26161 | 32877 ft | 527 kts | 140° |
| 2026-05-07 15:27 | -13.08872 | 119.31360 | 32892 ft | 528 kts | 140° |
| 2026-05-07 15:28 | -13.14149 | 119.36526 | 32884 ft | 528 kts | 140° |
| 2026-05-07 15:28 | -13.19461 | 119.41728 | 32877 ft | 528 kts | 140° |
| 2026-05-07 15:29 | -13.24774 | 119.46935 | 32876 ft | 528 kts | 140° |
| 2026-05-07 15:29 | -13.30081 | 119.52139 | 32876 ft | 528 kts | 140° |
| 2026-05-07 15:30 | -13.35393 | 119.57352 | 32875 ft | 528 kts | 140° |
| 2026-05-07 15:30 | -13.40697 | 119.62560 | 32885 ft | 528 kts | 140° |
| 2026-05-07 15:31 | -13.46007 | 119.67778 | 32883 ft | 528 kts | 140° |
| 2026-05-07 15:31 | -13.51315 | 119.72996 | 32883 ft | 528 kts | 140° |
| 2026-05-07 15:32 | -13.56548 | 119.78144 | 32876 ft | 527 kts | 140° |
| 2026-05-07 15:32 | -13.61848 | 119.83362 | 32881 ft | 527 kts | 140° |
| 2026-05-07 15:33 | -13.67145 | 119.88580 | 32896 ft | 527 kts | 140° |
| 2026-05-07 15:33 | -13.72442 | 119.93801 | 32887 ft | 527 kts | 140° |
| 2026-05-07 15:34 | -13.77736 | 119.99023 | 32879 ft | 527 kts | 140° |
| 2026-05-07 15:34 | -13.83026 | 120.04244 | 32881 ft | 526 kts | 140° |
| 2026-05-07 15:35 | -13.88242 | 120.09396 | 32889 ft | 526 kts | 140° |
| 2026-05-07 15:35 | -13.93486 | 120.14580 | 32899 ft | 526 kts | 141° |
| 2026-05-07 15:36 | -13.98796 | 120.19830 | 32894 ft | 526 kts | 141° |
| 2026-05-07 15:36 | -14.04045 | 120.25025 | 32889 ft | 526 kts | 141° |
| 2026-05-07 15:37 | -14.09322 | 120.30251 | 32889 ft | 526 kts | 141° |
| 2026-05-07 15:37 | -14.14594 | 120.35476 | 32891 ft | 526 kts | 141° |
| 2026-05-07 15:38 | -14.19873 | 120.40710 | 32903 ft | 526 kts | 141° |
| 2026-05-07 15:38 | -14.25145 | 120.45942 | 32883 ft | 526 kts | 141° |
| 2026-05-07 15:39 | -14.30410 | 120.51170 | 32899 ft | 526 kts | 141° |
| 2026-05-07 15:39 | -14.35687 | 120.56414 | 32899 ft | 527 kts | 141° |
| 2026-05-07 15:40 | -14.40960 | 120.61657 | 32884 ft | 527 kts | 141° |
| 2026-05-07 15:40 | -14.46241 | 120.66912 | 32904 ft | 527 kts | 141° |
| 2026-05-07 15:41 | -14.51518 | 120.72167 | 32888 ft | 527 kts | 141° |
| 2026-05-07 15:41 | -14.56795 | 120.77425 | 32898 ft | 527 kts | 141° |
| 2026-05-07 15:42 | -14.62043 | 120.82658 | 32894 ft | 527 kts | 141° |
| 2026-05-07 15:42 | -14.67320 | 120.87924 | 32898 ft | 527 kts | 141° |
| 2026-05-07 15:43 | -14.72593 | 120.93190 | 32896 ft | 527 kts | 141° |
| 2026-05-07 15:43 | -14.77869 | 120.98463 | 32901 ft | 528 kts | 141° |
| 2026-05-07 15:44 | -14.83148 | 121.03741 | 32900 ft | 527 kts | 141° |
| 2026-05-07 15:44 | -14.88426 | 121.09023 | 32904 ft | 527 kts | 141° |
| 2026-05-07 15:45 | -14.93665 | 121.14269 | 32903 ft | 527 kts | 141° |
| 2026-05-07 15:45 | -14.98925 | 121.19540 | 32903 ft | 527 kts | 141° |
| 2026-05-07 15:46 | -15.06807 | 121.27446 | 32901 ft | 527 kts | 141° |
| 2026-05-07 15:47 | -15.12071 | 121.32732 | 32900 ft | 527 kts | 141° |
| 2026-05-07 15:47 | -15.17334 | 121.38019 | 32900 ft | 527 kts | 141° |
| 2026-05-07 15:48 | -15.21709 | 121.42417 | 32902 ft | 527 kts | 141° |
| 2026-05-07 15:48 | -15.26966 | 121.47706 | 32919 ft | 527 kts | 142° |
| 2026-05-07 15:49 | -15.32224 | 121.53000 | 32906 ft | 527 kts | 142° |
| 2026-05-07 15:49 | -15.38342 | 121.59164 | 32906 ft | 527 kts | 142° |
| 2026-05-07 15:50 | -15.42747 | 121.63606 | 32907 ft | 527 kts | 142° |
| 2026-05-07 15:50 | -15.48003 | 121.68910 | 32906 ft | 527 kts | 142° |
| 2026-05-07 15:51 | -15.53261 | 121.74219 | 32908 ft | 527 kts | 142° |
| 2026-05-07 15:51 | -15.58477 | 121.79490 | 32909 ft | 527 kts | 142° |
| 2026-05-07 15:52 | -15.63732 | 121.84804 | 32906 ft | 527 kts | 142° |
| 2026-05-07 15:52 | -15.68982 | 121.90117 | 32906 ft | 527 kts | 142° |
| 2026-05-07 15:53 | -15.74233 | 121.95436 | 32904 ft | 527 kts | 142° |
| 2026-05-07 15:53 | -15.79483 | 122.00757 | 32923 ft | 527 kts | 142° |
| 2026-05-07 15:54 | -15.84733 | 122.06082 | 32911 ft | 528 kts | 142° |
| 2026-05-07 15:54 | -15.89990 | 122.11420 | 32910 ft | 528 kts | 142° |
| 2026-05-07 15:55 | -15.95246 | 122.16759 | 32909 ft | 528 kts | 142° |
| 2026-05-07 15:55 | -16.00505 | 122.22106 | 32912 ft | 529 kts | 142° |
| 2026-05-07 15:56 | -16.05761 | 122.27455 | 32923 ft | 529 kts | 142° |
| 2026-05-07 15:56 | -16.11019 | 122.32809 | 32912 ft | 529 kts | 142° |
| 2026-05-07 15:57 | -16.16253 | 122.38143 | 32910 ft | 529 kts | 142° |
| 2026-05-07 15:57 | -16.21506 | 122.43501 | 32917 ft | 529 kts | 142° |
| 2026-05-07 15:58 | -16.26771 | 122.48875 | 32916 ft | 530 kts | 142° |
| 2026-05-07 15:58 | -16.32031 | 122.54248 | 32929 ft | 530 kts | 142° |
| 2026-05-07 15:59 | -16.37258 | 122.59591 | 32923 ft | 530 kts | 142° |
| 2026-05-07 15:59 | -16.42531 | 122.64986 | 32930 ft | 531 kts | 142° |
| 2026-05-07 16:00 | -16.47805 | 122.70387 | 32924 ft | 531 kts | 142° |
| 2026-05-07 16:00 | -16.53071 | 122.75784 | 32932 ft | 531 kts | 142° |
| 2026-05-07 16:01 | -16.58344 | 122.81192 | 32931 ft | 532 kts | 142° |
| 2026-05-07 16:01 | -16.63615 | 122.86603 | 32932 ft | 532 kts | 142° |
| 2026-05-07 16:02 | -16.68862 | 122.91994 | 32936 ft | 532 kts | 142° |
| 2026-05-07 16:02 | -16.74134 | 122.97414 | 32936 ft | 532 kts | 142° |
| 2026-05-07 16:03 | -16.79406 | 123.02839 | 32935 ft | 531 kts | 142° |
| 2026-05-07 16:03 | -16.84668 | 123.08259 | 32949 ft | 531 kts | 142° |
| 2026-05-07 16:04 | -16.89936 | 123.13689 | 32949 ft | 531 kts | 142° |
| 2026-05-07 16:04 | -16.95198 | 123.19117 | 32942 ft | 531 kts | 143° |
| 2026-05-07 16:05 | -17.00449 | 123.24538 | 32955 ft | 530 kts | 143° |
| 2026-05-07 16:05 | -17.05663 | 123.29925 | 32966 ft | 531 kts | 143° |
| 2026-05-07 16:06 | -17.10914 | 123.35355 | 32963 ft | 531 kts | 143° |
| 2026-05-07 16:06 | -17.16166 | 123.40790 | 32948 ft | 532 kts | 143° |
| 2026-05-07 16:07 | -17.21434 | 123.46248 | 32950 ft | 532 kts | 142° |
| 2026-05-07 16:07 | -17.26702 | 123.51709 | 32968 ft | 533 kts | 142° |
| 2026-05-07 16:08 | -17.31970 | 123.57176 | 32971 ft | 534 kts | 143° |
| 2026-05-07 16:08 | -17.37244 | 123.62654 | 32963 ft | 534 kts | 143° |
| 2026-05-07 16:09 | -17.42485 | 123.68102 | 32967 ft | 535 kts | 143° |
| 2026-05-07 16:09 | -17.47764 | 123.73596 | 32969 ft | 535 kts | 143° |
| 2026-05-07 16:10 | -17.53041 | 123.79091 | 32985 ft | 535 kts | 143° |
| 2026-05-07 16:10 | -17.58291 | 123.84637 | 32956 ft | 539 kts | 140° |
| 2026-05-07 16:11 | -17.62913 | 123.90913 | 32962 ft | 548 kts | 132° |
| 2026-05-07 16:11 | -17.67248 | 123.97502 | 32962 ft | 548 kts | 132° |
| 2026-05-07 16:12 | -17.71596 | 124.04084 | 32967 ft | 548 kts | 132° |
| 2026-05-07 16:12 | -17.75966 | 124.10625 | 33001 ft | 547 kts | 133° |
| 2026-05-07 16:13 | -17.80355 | 124.17166 | 32988 ft | 548 kts | 133° |
| 2026-05-07 16:13 | -17.84741 | 124.23709 | 32993 ft | 548 kts | 133° |
| 2026-05-07 16:14 | -17.89122 | 124.30259 | 32984 ft | 548 kts | 133° |
| 2026-05-07 16:14 | -17.93476 | 124.36778 | 32996 ft | 548 kts | 133° |
| 2026-05-07 16:15 | -17.97853 | 124.43339 | 32987 ft | 548 kts | 133° |
| 2026-05-07 16:15 | -18.02225 | 124.49897 | 32994 ft | 547 kts | 133° |
| 2026-05-07 16:16 | -18.06596 | 124.56460 | 32989 ft | 547 kts | 132° |
| 2026-05-07 16:16 | -18.10928 | 124.62971 | 32991 ft | 547 kts | 132° |
| 2026-05-07 16:17 | -18.15285 | 124.69526 | 32994 ft | 547 kts | 132° |
| 2026-05-07 16:17 | -18.19644 | 124.76091 | 33023 ft | 547 kts | 133° |
| 2026-05-07 16:18 | -18.24002 | 124.82662 | 32989 ft | 547 kts | 133° |
| 2026-05-07 16:18 | -18.28356 | 124.89232 | 32991 ft | 548 kts | 133° |
| 2026-05-07 16:19 | -18.32715 | 124.95816 | 33014 ft | 548 kts | 133° |
| 2026-05-07 16:19 | -18.37068 | 125.02400 | 33007 ft | 547 kts | 133° |
| 2026-05-07 16:20 | -18.41416 | 125.08982 | 33026 ft | 548 kts | 133° |
| 2026-05-07 16:20 | -18.45768 | 125.15575 | 33017 ft | 548 kts | 133° |
| 2026-05-07 16:21 | -18.50091 | 125.22133 | 33015 ft | 548 kts | 133° |
| 2026-05-07 16:21 | -18.54443 | 125.28742 | 33015 ft | 549 kts | 133° |
| 2026-05-07 16:22 | -18.58792 | 125.35352 | 33018 ft | 549 kts | 133° |
| 2026-05-07 16:22 | -18.63140 | 125.41968 | 33048 ft | 549 kts | 133° |
| 2026-05-07 16:23 | -18.67491 | 125.48596 | 33033 ft | 550 kts | 133° |
| 2026-05-07 16:23 | -18.71847 | 125.55236 | 33021 ft | 550 kts | 133° |
| 2026-05-07 16:24 | -18.76206 | 125.61890 | 33027 ft | 551 kts | 133° |
| 2026-05-07 16:24 | -18.80560 | 125.68544 | 33024 ft | 551 kts | 133° |
| 2026-05-07 16:25 | -18.84896 | 125.75178 | 33041 ft | 552 kts | 133° |
| 2026-05-07 16:25 | -18.89246 | 125.81836 | 33037 ft | 552 kts | 133° |
| 2026-05-07 16:26 | -18.93611 | 125.88529 | 33030 ft | 553 kts | 133° |
| 2026-05-07 16:26 | -18.97976 | 125.95227 | 33036 ft | 553 kts | 133° |
| 2026-05-07 16:27 | -19.02333 | 126.01921 | 33036 ft | 553 kts | 133° |
| 2026-05-07 16:27 | -19.06690 | 126.08621 | 33042 ft | 554 kts | 133° |
| 2026-05-07 16:28 | -19.11056 | 126.15343 | 33048 ft | 554 kts | 133° |
| 2026-05-07 16:28 | -19.15383 | 126.22013 | 33040 ft | 554 kts | 133° |
| 2026-05-07 16:29 | -19.19738 | 126.28733 | 33034 ft | 554 kts | 133° |
| 2026-05-07 16:29 | -19.24092 | 126.35458 | 33089 ft | 553 kts | 133° |
| 2026-05-07 16:30 | -19.28445 | 126.42188 | 33054 ft | 554 kts | 133° |
| 2026-05-07 16:30 | -19.32798 | 126.48928 | 33058 ft | 554 kts | 133° |
| 2026-05-07 16:31 | -19.37147 | 126.55669 | 33054 ft | 554 kts | 133° |
| 2026-05-07 16:31 | -19.41494 | 126.62414 | 33056 ft | 554 kts | 133° |
| 2026-05-07 16:32 | -19.45846 | 126.69175 | 33072 ft | 555 kts | 133° |
| 2026-05-07 16:32 | -19.50188 | 126.75937 | 33058 ft | 555 kts | 133° |
| 2026-05-07 16:33 | -19.54534 | 126.82717 | 33061 ft | 555 kts | 133° |
| 2026-05-07 16:33 | -19.58851 | 126.89459 | 33064 ft | 555 kts | 133° |
| 2026-05-07 16:34 | -19.63192 | 126.96246 | 33070 ft | 555 kts | 132° |
| 2026-05-07 16:34 | -19.66795 | 127.01884 | 33072 ft | 556 kts | 133° |
| 2026-05-07 16:35 | -19.71137 | 127.08685 | 33080 ft | 556 kts | 132° |
| 2026-05-07 16:35 | -19.75476 | 127.15491 | 33068 ft | 556 kts | 132° |
| 2026-05-07 16:36 | -19.79807 | 127.22291 | 33073 ft | 556 kts | 132° |
| 2026-05-07 16:36 | -19.84137 | 127.29097 | 33116 ft | 556 kts | 132° |
| 2026-05-07 16:37 | -19.88472 | 127.35917 | 33077 ft | 556 kts | 132° |
| 2026-05-07 16:37 | -19.92802 | 127.42739 | 33069 ft | 556 kts | 132° |
| 2026-05-07 16:38 | -19.97083 | 127.49492 | 33087 ft | 556 kts | 132° |
| 2026-05-07 16:38 | -20.01408 | 127.56322 | 33088 ft | 556 kts | 132° |
| 2026-05-07 16:39 | -20.05720 | 127.63140 | 33072 ft | 556 kts | 132° |
| 2026-05-07 16:39 | -20.10042 | 127.69979 | 33072 ft | 557 kts | 132° |
| 2026-05-07 16:40 | -20.14361 | 127.76822 | 33085 ft | 557 kts | 131° |
| 2026-05-07 16:40 | -20.18678 | 127.83672 | 33091 ft | 557 kts | 131° |
| 2026-05-07 16:41 | -20.22991 | 127.90522 | 33114 ft | 558 kts | 131° |
| 2026-05-07 16:41 | -20.27313 | 127.97393 | 33083 ft | 558 kts | 131° |
| 2026-05-07 16:42 | -20.31605 | 128.04227 | 33088 ft | 558 kts | 131° |
| 2026-05-07 16:42 | -20.35913 | 128.11095 | 33091 ft | 558 kts | 131° |
| 2026-05-07 16:43 | -20.40225 | 128.17976 | 33096 ft | 558 kts | 131° |
| 2026-05-07 16:43 | -20.44538 | 128.24865 | 33093 ft | 558 kts | 130° |
| 2026-05-07 16:44 | -20.48847 | 128.31758 | 33095 ft | 558 kts | 130° |
| 2026-05-07 16:44 | -20.53123 | 128.38608 | 33098 ft | 557 kts | 130° |
| 2026-05-07 16:45 | -20.57417 | 128.45493 | 33100 ft | 557 kts | 130° |
| 2026-05-07 16:45 | -20.61706 | 128.52376 | 33111 ft | 557 kts | 130° |
| 2026-05-07 16:46 | -20.65991 | 128.59264 | 33101 ft | 556 kts | 130° |
| 2026-05-07 16:46 | -20.70269 | 128.66149 | 33108 ft | 556 kts | 130° |
| 2026-05-07 16:47 | -20.74543 | 128.73035 | 33104 ft | 555 kts | 129° |
| 2026-05-07 16:47 | -20.78806 | 128.79910 | 33131 ft | 555 kts | 129° |
| 2026-05-07 16:48 | -20.83044 | 128.86755 | 33114 ft | 555 kts | 129° |
| 2026-05-07 16:48 | -20.87330 | 128.93684 | 33110 ft | 555 kts | 129° |
| 2026-05-07 16:49 | -20.91554 | 129.00523 | 33115 ft | 555 kts | 129° |
| 2026-05-07 16:49 | -20.95806 | 129.07415 | 33142 ft | 555 kts | 129° |
| 2026-05-07 16:50 | -21.00062 | 129.14322 | 33102 ft | 555 kts | 129° |
| 2026-05-07 16:50 | -21.04313 | 129.21229 | 33109 ft | 555 kts | 128° |
| 2026-05-07 16:51 | -21.08552 | 129.28125 | 33112 ft | 555 kts | 128° |
| 2026-05-07 16:51 | -21.12798 | 129.35042 | 33112 ft | 556 kts | 128° |
| 2026-05-07 16:52 | -21.17047 | 129.41969 | 33120 ft | 556 kts | 128° |
| 2026-05-07 16:52 | -21.21265 | 129.48858 | 33118 ft | 556 kts | 128° |
| 2026-05-07 16:53 | -21.25511 | 129.55800 | 33117 ft | 556 kts | 128° |
| 2026-05-07 16:53 | -21.29753 | 129.62744 | 33112 ft | 556 kts | 128° |
| 2026-05-07 16:54 | -21.33994 | 129.69694 | 33132 ft | 557 kts | 128° |
| 2026-05-07 16:54 | -21.38231 | 129.76647 | 33131 ft | 556 kts | 128° |
| 2026-05-07 16:55 | -21.42470 | 129.83613 | 33114 ft | 556 kts | 128° |
| 2026-05-07 16:55 | -21.46675 | 129.90531 | 33133 ft | 556 kts | 128° |
| 2026-05-07 16:56 | -21.50904 | 129.97497 | 33139 ft | 557 kts | 127° |
| 2026-05-07 16:56 | -21.57235 | 130.07943 | 33128 ft | 556 kts | 127° |
| 2026-05-07 16:57 | -21.61451 | 130.14910 | 33140 ft | 556 kts | 127° |
| 2026-05-07 16:57 | -21.65667 | 130.21886 | 33170 ft | 556 kts | 127° |
| 2026-05-07 16:58 | -21.69854 | 130.28821 | 33138 ft | 556 kts | 127° |
| 2026-05-07 16:58 | -21.74061 | 130.35800 | 33143 ft | 556 kts | 127° |
| 2026-05-07 16:59 | -21.78267 | 130.42786 | 33143 ft | 556 kts | 127° |
| 2026-05-07 16:59 | -21.82473 | 130.49783 | 33141 ft | 556 kts | 127° |
| 2026-05-07 17:00 | -21.86676 | 130.56783 | 33149 ft | 556 kts | 127° |
| 2026-05-07 17:00 | -21.90872 | 130.63780 | 33156 ft | 557 kts | 127° |
| 2026-05-07 17:01 | -21.95052 | 130.70755 | 33155 ft | 557 kts | 127° |
| 2026-05-07 17:01 | -21.99187 | 130.77660 | 33187 ft | 558 kts | 127° |
| 2026-05-07 17:02 | -22.03450 | 130.84790 | 33153 ft | 558 kts | 127° |
| 2026-05-07 17:02 | -22.07646 | 130.91819 | 33143 ft | 557 kts | 126° |
| 2026-05-07 17:03 | -22.11843 | 130.98860 | 33170 ft | 556 kts | 126° |
| 2026-05-07 17:03 | -22.16002 | 131.05846 | 33182 ft | 556 kts | 126° |
| 2026-05-07 17:04 | -22.20131 | 131.12790 | 33176 ft | 556 kts | 126° |
| 2026-05-07 17:04 | -22.24298 | 131.19807 | 33162 ft | 555 kts | 126° |
| 2026-05-07 17:05 | -22.28466 | 131.26835 | 33175 ft | 555 kts | 126° |
| 2026-05-07 17:05 | -22.32633 | 131.33871 | 33209 ft | 556 kts | 126° |
| 2026-05-07 17:06 | -22.36797 | 131.40911 | 33182 ft | 556 kts | 126° |
| 2026-05-07 17:06 | -22.40958 | 131.47955 | 33180 ft | 556 kts | 126° |
| 2026-05-07 17:07 | -22.45112 | 131.54997 | 33185 ft | 556 kts | 126° |
| 2026-05-07 17:07 | -22.49264 | 131.62046 | 33205 ft | 556 kts | 125° |
| 2026-05-07 17:08 | -22.53415 | 131.69101 | 33195 ft | 556 kts | 125° |
| 2026-05-07 17:08 | -22.57565 | 131.76165 | 33193 ft | 556 kts | 125° |
| 2026-05-07 17:09 | -22.61686 | 131.83188 | 33192 ft | 556 kts | 125° |
| 2026-05-07 17:09 | -22.65821 | 131.90246 | 33216 ft | 555 kts | 125° |
| 2026-05-07 17:10 | -22.69954 | 131.97309 | 33196 ft | 555 kts | 125° |
| 2026-05-07 17:10 | -22.74076 | 132.04363 | 33189 ft | 554 kts | 125° |
| 2026-05-07 17:11 | -22.78199 | 132.11428 | 33202 ft | 554 kts | 125° |
| 2026-05-07 17:11 | -22.82320 | 132.18498 | 33203 ft | 554 kts | 124° |
| 2026-05-07 17:12 | -22.86402 | 132.25513 | 33191 ft | 554 kts | 124° |
| 2026-05-07 17:12 | -22.90456 | 132.32487 | 33201 ft | 553 kts | 124° |
| 2026-05-07 17:13 | -22.94559 | 132.39556 | 33200 ft | 553 kts | 124° |
| 2026-05-07 17:13 | -22.98659 | 132.46630 | 33203 ft | 553 kts | 124° |
| 2026-05-07 17:14 | -23.02751 | 132.53699 | 33202 ft | 553 kts | 124° |
| 2026-05-07 17:14 | -23.06832 | 132.60760 | 33200 ft | 552 kts | 124° |
| 2026-05-07 17:15 | -23.10917 | 132.67837 | 33221 ft | 552 kts | 124° |
| 2026-05-07 17:15 | -23.14962 | 132.74854 | 33212 ft | 552 kts | 124° |
| 2026-05-07 17:16 | -23.19010 | 132.81886 | 33212 ft | 551 kts | 124° |
| 2026-05-07 17:16 | -23.23077 | 132.88960 | 33209 ft | 551 kts | 124° |
| 2026-05-07 17:17 | -23.27134 | 132.96028 | 33229 ft | 550 kts | 124° |
| 2026-05-07 17:17 | -23.31172 | 133.03073 | 33199 ft | 547 kts | 124° |
| 2026-05-07 17:18 | -23.35186 | 133.10085 | 33206 ft | 545 kts | 124° |
| 2026-05-07 17:18 | -23.39160 | 133.17036 | 33215 ft | 544 kts | 124° |
| 2026-05-07 17:19 | -23.43161 | 133.24044 | 33224 ft | 545 kts | 124° |
| 2026-05-07 17:19 | -23.47140 | 133.31022 | 33223 ft | 547 kts | 123° |
| 2026-05-07 17:20 | -23.51156 | 133.38077 | 33226 ft | 549 kts | 123° |
| 2026-05-07 17:20 | -23.55181 | 133.45156 | 33245 ft | 551 kts | 123° |
| 2026-05-07 17:21 | -23.58566 | 133.51118 | 33230 ft | 552 kts | 123° |
| 2026-05-07 17:21 | -23.62578 | 133.58195 | 33227 ft | 552 kts | 123° |
| 2026-05-07 17:22 | -23.66610 | 133.65316 | 33213 ft | 551 kts | 123° |
| 2026-05-07 17:22 | -23.70636 | 133.72437 | 33242 ft | 550 kts | 123° |
| 2026-05-07 17:23 | -23.74649 | 133.79546 | 33226 ft | 549 kts | 123° |
| 2026-05-07 17:23 | -23.78654 | 133.86621 | 33209 ft | 547 kts | 125° |
| 2026-05-07 17:24 | -23.83195 | 133.93127 | 33254 ft | 543 kts | 133° |
| 2026-05-07 17:24 | -23.88075 | 133.99423 | 33229 ft | 543 kts | 133° |
| 2026-05-07 17:25 | -23.92947 | 134.05738 | 33229 ft | 543 kts | 132° |
| 2026-05-07 17:25 | -23.97745 | 134.12038 | 33240 ft | 543 kts | 132° |
| 2026-05-07 17:26 | -24.02562 | 134.18400 | 33249 ft | 543 kts | 131° |
| 2026-05-07 17:26 | -24.07333 | 134.24712 | 33214 ft | 542 kts | 131° |
| 2026-05-07 17:27 | -24.12143 | 134.31078 | 33240 ft | 542 kts | 131° |
| 2026-05-07 17:27 | -24.16955 | 134.37452 | 33261 ft | 542 kts | 131° |
| 2026-05-07 17:28 | -24.21748 | 134.43808 | 33226 ft | 541 kts | 131° |
| 2026-05-07 17:28 | -24.26534 | 134.50164 | 33251 ft | 540 kts | 131° |
| 2026-05-07 17:29 | -24.31309 | 134.56513 | 33267 ft | 539 kts | 131° |
| 2026-05-07 17:29 | -24.36031 | 134.62801 | 33234 ft | 538 kts | 131° |
| 2026-05-07 17:30 | -24.40787 | 134.69143 | 33263 ft | 537 kts | 131° |
| 2026-05-07 17:30 | -24.45537 | 134.75483 | 33275 ft | 537 kts | 131° |
| 2026-05-07 17:31 | -24.50277 | 134.81820 | 33250 ft | 536 kts | 131° |
| 2026-05-07 17:31 | -24.55007 | 134.88151 | 33247 ft | 535 kts | 131° |
| 2026-05-07 17:32 | -24.59725 | 134.94474 | 33271 ft | 534 kts | 131° |
| 2026-05-07 17:32 | -24.64431 | 135.00790 | 33248 ft | 533 kts | 131° |
| 2026-05-07 17:33 | -24.69122 | 135.07093 | 33250 ft | 532 kts | 131° |
| 2026-05-07 17:33 | -24.73802 | 135.13390 | 33260 ft | 531 kts | 131° |
| 2026-05-07 17:34 | -24.78482 | 135.19696 | 33254 ft | 532 kts | 131° |
| 2026-05-07 17:34 | -24.83159 | 135.26006 | 33257 ft | 532 kts | 131° |
| 2026-05-07 17:35 | -24.87810 | 135.32288 | 33261 ft | 533 kts | 131° |
| 2026-05-07 17:35 | -24.92493 | 135.38622 | 33262 ft | 533 kts | 130° |
| 2026-05-07 17:36 | -24.97208 | 135.45010 | 33283 ft | 534 kts | 130° |
| 2026-05-07 17:36 | -25.01883 | 135.51351 | 33269 ft | 533 kts | 130° |
| 2026-05-07 17:37 | -25.06519 | 135.57647 | 33257 ft | 531 kts | 130° |
| 2026-05-07 17:37 | -25.11165 | 135.63965 | 33253 ft | 529 kts | 130° |
| 2026-05-07 17:38 | -25.15797 | 135.70272 | 33260 ft | 528 kts | 130° |
| 2026-05-07 17:38 | -25.20413 | 135.76566 | 33265 ft | 527 kts | 130° |
| 2026-05-07 17:39 | -25.25022 | 135.82859 | 33265 ft | 527 kts | 130° |
| 2026-05-07 17:39 | -25.29634 | 135.89165 | 33266 ft | 528 kts | 130° |
| 2026-05-07 17:40 | -25.34255 | 135.95490 | 33271 ft | 529 kts | 130° |
| 2026-05-07 17:40 | -25.38881 | 136.01833 | 33266 ft | 530 kts | 130° |
| 2026-05-07 17:41 | -25.43499 | 136.08172 | 33267 ft | 530 kts | 130° |
| 2026-05-07 17:41 | -25.48126 | 136.14533 | 33264 ft | 530 kts | 130° |
| 2026-05-07 17:42 | -25.52717 | 136.20853 | 33261 ft | 530 kts | 130° |
| 2026-05-07 17:42 | -25.57342 | 136.27228 | 33266 ft | 530 kts | 130° |
| 2026-05-07 17:43 | -25.61959 | 136.33599 | 33269 ft | 530 kts | 130° |
| 2026-05-07 17:43 | -25.66577 | 136.39982 | 33269 ft | 530 kts | 130° |
| 2026-05-07 17:44 | -25.71187 | 136.46363 | 33267 ft | 530 kts | 130° |
| 2026-05-07 17:44 | -25.75792 | 136.52746 | 33265 ft | 529 kts | 130° |
| 2026-05-07 17:45 | -25.80357 | 136.59083 | 33266 ft | 529 kts | 130° |
| 2026-05-07 17:45 | -25.84943 | 136.65458 | 33268 ft | 529 kts | 130° |
| 2026-05-07 17:46 | -25.89533 | 136.71846 | 33283 ft | 528 kts | 130° |
| 2026-05-07 17:46 | -25.94085 | 136.78189 | 33268 ft | 527 kts | 129° |
| 2026-05-07 17:47 | -25.98645 | 136.84553 | 33263 ft | 525 kts | 129° |
| 2026-05-07 17:47 | -26.03188 | 136.90905 | 33264 ft | 524 kts | 129° |
| 2026-05-07 17:48 | -26.07721 | 136.97252 | 33269 ft | 523 kts | 129° |
| 2026-05-07 17:48 | -26.12239 | 137.03586 | 33262 ft | 523 kts | 129° |
| 2026-05-07 17:49 | -26.16761 | 137.09935 | 33267 ft | 523 kts | 129° |
| 2026-05-07 17:49 | -26.21254 | 137.16250 | 33269 ft | 524 kts | 129° |
| 2026-05-07 17:50 | -26.25776 | 137.22617 | 33267 ft | 524 kts | 129° |
| 2026-05-07 17:50 | -26.30307 | 137.29004 | 33267 ft | 525 kts | 129° |
| 2026-05-07 17:51 | -26.34834 | 137.35396 | 33285 ft | 525 kts | 129° |
| 2026-05-07 17:51 | -26.39364 | 137.41801 | 33274 ft | 525 kts | 129° |
| 2026-05-07 17:52 | -26.43868 | 137.48177 | 33258 ft | 523 kts | 129° |
| 2026-05-07 17:52 | -26.48366 | 137.54554 | 33266 ft | 522 kts | 129° |
| 2026-05-07 17:53 | -26.52849 | 137.60919 | 33277 ft | 520 kts | 129° |
| 2026-05-07 17:53 | -26.57270 | 137.67206 | 33271 ft | 520 kts | 129° |
| 2026-05-07 17:54 | -26.61730 | 137.73555 | 33279 ft | 519 kts | 129° |
| 2026-05-07 17:54 | -26.66194 | 137.79920 | 33286 ft | 519 kts | 129° |
| 2026-05-07 17:55 | -26.70620 | 137.86240 | 33276 ft | 520 kts | 129° |
| 2026-05-07 17:55 | -26.75046 | 137.92570 | 33276 ft | 520 kts | 129° |
| 2026-05-07 17:56 | -26.79511 | 137.98963 | 33278 ft | 521 kts | 129° |
| 2026-05-07 17:56 | -26.83972 | 138.05361 | 33294 ft | 521 kts | 129° |
| 2026-05-07 17:57 | -26.87677 | 138.10682 | 33283 ft | 521 kts | 129° |
| 2026-05-07 17:57 | -26.92874 | 138.18154 | 33280 ft | 519 kts | 129° |
| 2026-05-07 17:58 | -26.97307 | 138.24536 | 33261 ft | 518 kts | 129° |
| 2026-05-07 17:58 | -27.01724 | 138.30905 | 33281 ft | 517 kts | 129° |
| 2026-05-07 17:59 | -27.06133 | 138.37272 | 33280 ft | 516 kts | 129° |
| 2026-05-07 17:59 | -27.10505 | 138.43596 | 33283 ft | 516 kts | 129° |
| 2026-05-07 18:00 | -27.14875 | 138.49927 | 33281 ft | 517 kts | 129° |
| 2026-05-07 18:00 | -27.19275 | 138.56310 | 33281 ft | 517 kts | 129° |
| 2026-05-07 18:01 | -27.23689 | 138.62722 | 33286 ft | 518 kts | 129° |
| 2026-05-07 18:01 | -27.28097 | 138.69135 | 33288 ft | 519 kts | 129° |
| 2026-05-07 18:02 | -27.34714 | 138.78780 | 33287 ft | 518 kts | 128° |
| 2026-05-07 18:03 | -27.39112 | 138.85203 | 33281 ft | 517 kts | 128° |
| 2026-05-07 18:03 | -27.43463 | 138.91564 | 33282 ft | 515 kts | 129° |
| 2026-05-07 18:04 | -27.47828 | 138.97958 | 33280 ft | 514 kts | 128° |
| 2026-05-07 18:04 | -27.52177 | 139.04335 | 33296 ft | 514 kts | 128° |
| 2026-05-07 18:05 | -27.56532 | 139.10731 | 33285 ft | 514 kts | 128° |
| 2026-05-07 18:05 | -27.60885 | 139.17134 | 33297 ft | 514 kts | 128° |
| 2026-05-07 18:06 | -27.65238 | 139.23547 | 33293 ft | 515 kts | 128° |
| 2026-05-07 18:06 | -27.68857 | 139.28885 | 33296 ft | 516 kts | 128° |
| 2026-05-07 18:07 | -27.73926 | 139.36373 | 33291 ft | 516 kts | 128° |
| 2026-05-07 18:07 | -27.77549 | 139.41732 | 33307 ft | 516 kts | 128° |
| 2026-05-07 18:08 | -27.81894 | 139.48170 | 33294 ft | 515 kts | 128° |
| 2026-05-07 18:08 | -27.86234 | 139.54609 | 33291 ft | 513 kts | 128° |
| 2026-05-07 18:09 | -27.90548 | 139.61019 | 33283 ft | 512 kts | 128° |
| 2026-05-07 18:09 | -27.94844 | 139.67412 | 33291 ft | 511 kts | 128° |
| 2026-05-07 18:10 | -27.99138 | 139.73811 | 33301 ft | 510 kts | 128° |
| 2026-05-07 18:10 | -28.03428 | 139.80213 | 33291 ft | 510 kts | 128° |
| 2026-05-07 18:11 | -28.07719 | 139.86628 | 33297 ft | 511 kts | 128° |
| 2026-05-07 18:11 | -28.11988 | 139.93018 | 33304 ft | 512 kts | 128° |
| 2026-05-07 18:12 | -28.16291 | 139.99469 | 33311 ft | 513 kts | 128° |
| 2026-05-07 18:12 | -28.20595 | 140.05931 | 33303 ft | 514 kts | 128° |
| 2026-05-07 18:13 | -28.24899 | 140.12403 | 33314 ft | 514 kts | 128° |
| 2026-05-07 18:13 | -28.29197 | 140.18875 | 33288 ft | 513 kts | 128° |
| 2026-05-07 18:14 | -28.33483 | 140.25341 | 33287 ft | 512 kts | 128° |
| 2026-05-07 18:14 | -28.37762 | 140.31803 | 33313 ft | 511 kts | 128° |
| 2026-05-07 18:15 | -28.41956 | 140.38149 | 33318 ft | 511 kts | 128° |
| 2026-05-07 18:15 | -28.46222 | 140.44612 | 33320 ft | 510 kts | 128° |
| 2026-05-07 18:16 | -28.50480 | 140.51074 | 33309 ft | 510 kts | 128° |
| 2026-05-07 18:16 | -28.54734 | 140.57539 | 33295 ft | 511 kts | 128° |
| 2026-05-07 18:17 | -28.58991 | 140.64018 | 33294 ft | 511 kts | 128° |
| 2026-05-07 18:17 | -28.63237 | 140.70491 | 33322 ft | 511 kts | 128° |
| 2026-05-07 18:18 | -28.67474 | 140.76960 | 33302 ft | 512 kts | 128° |
| 2026-05-07 18:18 | -28.71740 | 140.83482 | 33297 ft | 513 kts | 128° |
| 2026-05-07 18:19 | -28.75998 | 140.90005 | 33302 ft | 512 kts | 128° |
| 2026-05-07 18:19 | -28.80248 | 140.96524 | 33301 ft | 512 kts | 128° |
| 2026-05-07 18:20 | -28.84488 | 141.03037 | 33304 ft | 511 kts | 128° |
| 2026-05-07 18:20 | -28.88710 | 141.09533 | 33306 ft | 510 kts | 128° |
| 2026-05-07 18:21 | -28.92925 | 141.16029 | 33310 ft | 509 kts | 128° |
| 2026-05-07 18:21 | -28.97080 | 141.22441 | 33308 ft | 509 kts | 128° |
| 2026-05-07 18:22 | -29.01284 | 141.28939 | 33307 ft | 509 kts | 128° |
| 2026-05-07 18:22 | -29.05485 | 141.35443 | 33310 ft | 509 kts | 128° |
| 2026-05-07 18:23 | -29.09689 | 141.41962 | 33310 ft | 509 kts | 128° |
| 2026-05-07 18:23 | -29.13896 | 141.48496 | 33312 ft | 510 kts | 128° |
| 2026-05-07 18:24 | -29.18070 | 141.54988 | 33310 ft | 511 kts | 128° |
| 2026-05-07 18:24 | -29.22247 | 141.61497 | 33324 ft | 511 kts | 128° |
| 2026-05-07 18:25 | -29.26450 | 141.68055 | 33302 ft | 510 kts | 128° |
| 2026-05-07 18:25 | -29.30641 | 141.74605 | 33310 ft | 509 kts | 128° |
| 2026-05-07 18:26 | -29.34815 | 141.81139 | 33309 ft | 507 kts | 128° |
| 2026-05-07 18:26 | -29.38979 | 141.87668 | 33310 ft | 507 kts | 128° |
| 2026-05-07 18:27 | -29.43138 | 141.94198 | 33312 ft | 506 kts | 128° |
| 2026-05-07 18:27 | -29.47291 | 142.00729 | 33311 ft | 506 kts | 128° |
| 2026-05-07 18:28 | -29.51439 | 142.07264 | 33318 ft | 507 kts | 128° |
| 2026-05-07 18:28 | -29.55565 | 142.13773 | 33315 ft | 507 kts | 128° |
| 2026-05-07 18:29 | -29.59725 | 142.20347 | 33310 ft | 508 kts | 128° |
| 2026-05-07 18:29 | -29.63880 | 142.26925 | 33312 ft | 509 kts | 128° |
| 2026-05-07 18:30 | -29.68036 | 142.33515 | 33310 ft | 509 kts | 128° |
| 2026-05-07 18:30 | -29.72191 | 142.40112 | 33312 ft | 509 kts | 128° |
| 2026-05-07 18:31 | -29.76349 | 142.46726 | 33310 ft | 509 kts | 128° |
| 2026-05-07 18:31 | -29.80467 | 142.53288 | 33311 ft | 509 kts | 128° |
| 2026-05-07 18:32 | -29.84562 | 142.59823 | 33307 ft | 509 kts | 128° |
| 2026-05-07 18:32 | -29.88702 | 142.66440 | 33310 ft | 509 kts | 128° |
| 2026-05-07 18:33 | -29.93016 | 142.72895 | 33310 ft | 507 kts | 131° |
| 2026-05-07 18:33 | -29.97466 | 142.79158 | 33315 ft | 507 kts | 132° |
| 2026-05-07 18:34 | -30.01952 | 142.85458 | 33308 ft | 507 kts | 131° |
| 2026-05-07 18:34 | -30.06409 | 142.91773 | 33309 ft | 508 kts | 131° |
| 2026-05-07 18:35 | -30.10857 | 142.98115 | 33313 ft | 508 kts | 131° |
| 2026-05-07 18:35 | -30.15301 | 143.04465 | 33304 ft | 508 kts | 131° |
| 2026-05-07 18:36 | -30.19719 | 143.10787 | 33307 ft | 508 kts | 131° |
| 2026-05-07 18:36 | -30.24169 | 143.17161 | 33304 ft | 508 kts | 131° |
| 2026-05-07 18:37 | -30.28613 | 143.23537 | 33305 ft | 508 kts | 131° |
| 2026-05-07 18:37 | -30.33023 | 143.29874 | 33309 ft | 509 kts | 131° |
| 2026-05-07 18:38 | -30.37434 | 143.36223 | 33303 ft | 509 kts | 131° |
| 2026-05-07 18:38 | -30.41864 | 143.42609 | 33305 ft | 508 kts | 131° |
| 2026-05-07 18:39 | -30.46292 | 143.49003 | 33304 ft | 508 kts | 131° |
| 2026-05-07 18:39 | -30.50726 | 143.55416 | 33303 ft | 508 kts | 131° |
| 2026-05-07 18:40 | -30.55118 | 143.61779 | 33307 ft | 508 kts | 131° |
| 2026-05-07 18:40 | -30.59515 | 143.68159 | 33306 ft | 508 kts | 131° |
| 2026-05-07 18:41 | -30.63918 | 143.74558 | 33300 ft | 507 kts | 131° |
| 2026-05-07 18:41 | -30.68321 | 143.80967 | 33302 ft | 506 kts | 131° |
| 2026-05-07 18:42 | -30.72707 | 143.87363 | 33299 ft | 505 kts | 131° |
| 2026-05-07 18:42 | -30.77087 | 143.93759 | 33303 ft | 505 kts | 131° |
| 2026-05-07 18:43 | -30.81423 | 144.00102 | 33299 ft | 505 kts | 131° |
| 2026-05-07 18:43 | -30.85768 | 144.06467 | 33298 ft | 505 kts | 131° |
| 2026-05-07 18:44 | -30.90133 | 144.12873 | 33301 ft | 505 kts | 131° |
| 2026-05-07 18:44 | -30.94499 | 144.19291 | 33297 ft | 506 kts | 131° |
| 2026-05-07 18:45 | -30.98868 | 144.25724 | 33298 ft | 506 kts | 131° |
| 2026-05-07 18:45 | -31.03233 | 144.32161 | 33299 ft | 506 kts | 131° |
| 2026-05-07 18:46 | -31.07594 | 144.38603 | 33292 ft | 505 kts | 131° |
| 2026-05-07 18:46 | -31.11944 | 144.45041 | 33290 ft | 504 kts | 131° |
| 2026-05-07 18:47 | -31.16279 | 144.51466 | 33299 ft | 504 kts | 131° |
| 2026-05-07 18:47 | -31.20577 | 144.57845 | 33290 ft | 503 kts | 131° |
| 2026-05-07 18:48 | -31.24913 | 144.64294 | 33291 ft | 503 kts | 131° |
| 2026-05-07 18:48 | -31.29220 | 144.70708 | 33292 ft | 503 kts | 131° |
| 2026-05-07 18:49 | -31.33536 | 144.77148 | 33302 ft | 503 kts | 131° |
| 2026-05-07 18:49 | -31.37852 | 144.83597 | 33292 ft | 504 kts | 131° |
| 2026-05-07 18:50 | -31.42167 | 144.90056 | 33297 ft | 504 kts | 130° |
| 2026-05-07 18:50 | -31.46483 | 144.96528 | 33282 ft | 503 kts | 130° |
| 2026-05-07 18:51 | -31.50776 | 145.02978 | 33292 ft | 501 kts | 130° |
| 2026-05-07 18:51 | -31.55063 | 145.09428 | 33279 ft | 500 kts | 130° |
| 2026-05-07 18:52 | -31.59304 | 145.15817 | 33289 ft | 499 kts | 130° |
| 2026-05-07 18:52 | -31.63566 | 145.22250 | 33286 ft | 499 kts | 130° |
| 2026-05-07 18:53 | -31.67819 | 145.28681 | 33292 ft | 499 kts | 130° |
| 2026-05-07 18:53 | -31.72074 | 145.35125 | 33283 ft | 499 kts | 130° |
| 2026-05-07 18:54 | -31.76298 | 145.41533 | 33278 ft | 500 kts | 130° |
| 2026-05-07 18:54 | -31.80557 | 145.48005 | 33275 ft | 500 kts | 130° |
| 2026-05-07 18:55 | -31.84094 | 145.53388 | 33290 ft | 500 kts | 130° |
| 2026-05-07 18:55 | -31.88346 | 145.59870 | 33287 ft | 501 kts | 130° |
| 2026-05-07 18:56 | -31.92606 | 145.66374 | 33282 ft | 500 kts | 130° |
| 2026-05-07 18:56 | -31.96845 | 145.72860 | 33275 ft | 499 kts | 130° |
| 2026-05-07 18:57 | -32.01065 | 145.79325 | 33279 ft | 499 kts | 130° |
| 2026-05-07 18:57 | -32.05291 | 145.85810 | 33283 ft | 498 kts | 130° |
| 2026-05-07 18:58 | -32.09512 | 145.92299 | 33275 ft | 498 kts | 130° |
| 2026-05-07 18:58 | -32.13731 | 145.98797 | 33273 ft | 499 kts | 130° |
| 2026-05-07 18:59 | -32.17947 | 146.05301 | 33283 ft | 499 kts | 130° |
| 2026-05-07 18:59 | -32.22166 | 146.11820 | 33260 ft | 500 kts | 130° |
| 2026-05-07 19:00 | -32.26392 | 146.18362 | 33264 ft | 501 kts | 130° |
| 2026-05-07 19:00 | -32.30622 | 146.24920 | 33266 ft | 502 kts | 131° |
| 2026-05-07 19:01 | -32.34853 | 146.31492 | 33271 ft | 502 kts | 131° |
| 2026-05-07 19:01 | -32.39059 | 146.38037 | 33264 ft | 503 kts | 131° |
| 2026-05-07 19:02 | -32.43295 | 146.44640 | 33263 ft | 503 kts | 131° |
| 2026-05-07 19:02 | -32.47530 | 146.51253 | 33252 ft | 504 kts | 131° |
| 2026-05-07 19:03 | -32.51762 | 146.57873 | 33255 ft | 503 kts | 131° |
| 2026-05-07 19:03 | -32.55987 | 146.64493 | 33249 ft | 503 kts | 131° |
| 2026-05-07 19:04 | -32.60207 | 146.71118 | 33254 ft | 503 kts | 131° |
| 2026-05-07 19:04 | -32.64387 | 146.77691 | 33244 ft | 503 kts | 131° |
| 2026-05-07 19:05 | -32.68597 | 146.84323 | 33260 ft | 502 kts | 130° |
| 2026-05-07 19:05 | -32.72763 | 146.90898 | 33249 ft | 503 kts | 131° |
| 2026-05-07 19:06 | -32.76976 | 146.97557 | 33242 ft | 504 kts | 131° |
| 2026-05-07 19:06 | -32.83286 | 147.07554 | 33241 ft | 504 kts | 131° |
| 2026-05-07 19:07 | -32.87494 | 147.14237 | 33241 ft | 505 kts | 131° |
| 2026-05-07 19:07 | -32.91708 | 147.20941 | 33234 ft | 505 kts | 131° |
| 2026-05-07 19:08 | -32.95863 | 147.27562 | 33231 ft | 506 kts | 131° |
| 2026-05-07 19:08 | -33.00073 | 147.34283 | 33232 ft | 506 kts | 131° |
| 2026-05-07 19:09 | -33.04286 | 147.41023 | 33235 ft | 507 kts | 131° |
| 2026-05-07 19:09 | -33.08502 | 147.47777 | 33229 ft | 508 kts | 131° |
| 2026-05-07 19:10 | -33.12710 | 147.54532 | 33245 ft | 508 kts | 131° |
| 2026-05-07 19:10 | -33.16919 | 147.61302 | 33219 ft | 508 kts | 131° |
| 2026-05-07 19:11 | -33.21131 | 147.68087 | 33233 ft | 509 kts | 131° |
| 2026-05-07 19:11 | -33.25346 | 147.74892 | 33226 ft | 510 kts | 131° |
| 2026-05-07 19:12 | -33.29567 | 147.81718 | 33221 ft | 511 kts | 131° |
| 2026-05-07 19:12 | -33.33791 | 147.88562 | 33216 ft | 512 kts | 131° |
| 2026-05-07 19:13 | -33.38168 | 147.95253 | 33223 ft | 508 kts | 138° |
| 2026-05-07 19:13 | -33.42949 | 148.01400 | 33219 ft | 507 kts | 139° |
| 2026-05-07 19:14 | -33.47786 | 148.07573 | 33211 ft | 508 kts | 139° |
| 2026-05-07 19:14 | -33.52607 | 148.13796 | 33233 ft | 509 kts | 139° |
| 2026-05-07 19:15 | -33.57410 | 148.20047 | 33209 ft | 510 kts | 139° |
| 2026-05-07 19:15 | -33.62221 | 148.26327 | 33211 ft | 511 kts | 139° |
| 2026-05-07 19:16 | -33.67025 | 148.32604 | 33209 ft | 511 kts | 139° |
| 2026-05-07 19:16 | -33.71798 | 148.38849 | 33204 ft | 510 kts | 139° |
| 2026-05-07 19:17 | -33.76569 | 148.45103 | 33200 ft | 510 kts | 139° |
| 2026-05-07 19:17 | -33.81359 | 148.51394 | 33199 ft | 511 kts | 140° |
| 2026-05-07 19:18 | -33.86153 | 148.57700 | 33206 ft | 511 kts | 140° |
| 2026-05-07 19:18 | -33.90952 | 148.64023 | 33179 ft | 512 kts | 140° |
| 2026-05-07 19:19 | -33.95750 | 148.70358 | 33202 ft | 512 kts | 140° |
| 2026-05-07 19:19 | -34.00466 | 148.76596 | 33228 ft | 512 kts | 140° |
| 2026-05-07 19:20 | -34.05250 | 148.82934 | 33189 ft | 513 kts | 140° |
| 2026-05-07 19:20 | -34.10056 | 148.89312 | 33176 ft | 514 kts | 140° |
| 2026-05-07 19:21 | -34.14844 | 148.95684 | 33041 ft | 507 kts | 140° |
| 2026-05-07 19:21 | -34.17197 | 148.98827 | 32677 ft | 500 kts | 140° |
| 2026-05-07 19:21 | -34.19532 | 149.01940 | 31984 ft | 501 kts | 140° |
| 2026-05-07 19:22 | -34.21871 | 149.05056 | 31571 ft | 498 kts | 140° |
| 2026-05-07 19:22 | -34.24198 | 149.08160 | 31425 ft | 501 kts | 140° |
| 2026-05-07 19:22 | -34.26559 | 149.11304 | 31288 ft | 510 kts | 140° |
| 2026-05-07 19:22 | -34.28953 | 149.14499 | 31286 ft | 513 kts | 140° |
| 2026-05-07 19:23 | -34.33730 | 149.20910 | 31247 ft | 512 kts | 140° |
| 2026-05-07 19:23 | -34.38485 | 149.27296 | 31267 ft | 509 kts | 140° |
| 2026-05-07 19:24 | -34.42517 | 149.34443 | 31262 ft | 526 kts | 120° |
| 2026-05-07 19:24 | -34.44470 | 149.43025 | 31250 ft | 541 kts | 102° |
| 2026-05-07 19:25 | -34.45407 | 149.52037 | 31253 ft | 544 kts | 101° |
| 2026-05-07 19:25 | -34.46407 | 149.61150 | 31266 ft | 546 kts | 102° |
| 2026-05-07 19:26 | -34.47490 | 149.70262 | 31233 ft | 548 kts | 102° |
| 2026-05-07 19:26 | -34.48579 | 149.79409 | 31211 ft | 549 kts | 102° |
| 2026-05-07 19:27 | -34.49459 | 149.88596 | 31194 ft | 552 kts | 92° |
| 2026-05-07 19:27 | -34.49126 | 149.93170 | 31212 ft | 556 kts | 81° |
| 2026-05-07 19:27 | -34.48164 | 149.97723 | 31170 ft | 558 kts | 70° |
| 2026-05-07 19:28 | -34.46603 | 150.02010 | 31190 ft | 555 kts | 59° |
| 2026-05-07 19:28 | -34.44709 | 150.06091 | 31186 ft | 556 kts | 58° |
| 2026-05-07 19:28 | -34.40910 | 150.14278 | 31185 ft | 558 kts | 59° |
| 2026-05-07 19:29 | -34.37195 | 150.22561 | 31172 ft | 561 kts | 59° |
| 2026-05-07 19:29 | -34.33500 | 150.30896 | 31101 ft | 562 kts | 59° |
| 2026-05-07 19:30 | -34.29839 | 150.39113 | 31150 ft | 560 kts | 59° |
| 2026-05-07 19:30 | -34.26130 | 150.47398 | 31173 ft | 557 kts | 59° |
| 2026-05-07 19:31 | -34.24309 | 150.51471 | 31125 ft | 543 kts | 59° |
| 2026-05-07 19:31 | -34.22566 | 150.55383 | 31109 ft | 528 kts | 59° |
| 2026-05-07 19:31 | -34.20852 | 150.59240 | 31099 ft | 514 kts | 59° |
| 2026-05-07 19:31 | -34.19181 | 150.63011 | 31085 ft | 509 kts | 58° |
| 2026-05-07 19:32 | -34.15833 | 150.70571 | 31118 ft | 509 kts | 58° |
| 2026-05-07 19:32 | -34.12494 | 150.78103 | 31139 ft | 510 kts | 58° |
| 2026-05-07 19:33 | -34.09184 | 150.85560 | 31131 ft | 512 kts | 58° |
| 2026-05-07 19:33 | -34.05821 | 150.93133 | 31118 ft | 513 kts | 58° |
| 2026-05-07 19:34 | -34.02456 | 151.00707 | 31106 ft | 511 kts | 58° |
| 2026-05-07 19:34 | -33.99100 | 151.08258 | 31107 ft | 510 kts | 57° |
| 2026-05-07 19:35 | -33.95757 | 151.15784 | 31100 ft | 508 kts | 57° |
| 2026-05-07 19:35 | -33.92442 | 151.23246 | 31110 ft | 507 kts | 57° |
| 2026-05-07 19:36 | -33.89147 | 151.30661 | 31105 ft | 507 kts | 58° |
| 2026-05-07 19:36 | -33.85816 | 151.38152 | 31120 ft | 508 kts | 57° |
| 2026-05-07 19:37 | -33.82476 | 151.45657 | 31111 ft | 509 kts | 57° |
| 2026-05-07 19:37 | -33.79152 | 151.53121 | 31110 ft | 510 kts | 57° |
| 2026-05-07 19:38 | -33.75803 | 151.60636 | 31072 ft | 510 kts | 58° |
| 2026-05-07 19:38 | -33.72490 | 151.68066 | 31107 ft | 509 kts | 57° |
| 2026-05-07 19:39 | -33.69153 | 151.75551 | 31111 ft | 507 kts | 57° |
| 2026-05-07 19:39 | -33.66386 | 151.81758 | 31098 ft | 506 kts | 57° |
| 2026-05-07 19:40 | -33.62506 | 151.90461 | 31105 ft | 506 kts | 57° |
| 2026-05-07 19:40 | -33.59714 | 151.96710 | 31117 ft | 515 kts | 57° |
| 2026-05-07 19:41 | -33.56275 | 152.04373 | 31121 ft | 528 kts | 57° |
| 2026-05-07 19:41 | -33.52750 | 152.12191 | 31119 ft | 540 kts | 57° |
| 2026-05-07 19:42 | -33.49134 | 152.20178 | 31125 ft | 551 kts | 57° |
| 2026-05-07 19:42 | -33.45463 | 152.28261 | 31068 ft | 556 kts | 57° |
| 2026-05-07 19:43 | -33.41820 | 152.36290 | 31088 ft | 544 kts | 57° |
| 2026-05-07 19:43 | -33.38244 | 152.44176 | 31105 ft | 546 kts | 57° |
| 2026-05-07 19:44 | -33.34615 | 152.52170 | 31106 ft | 548 kts | 57° |
| 2026-05-07 19:44 | -33.30968 | 152.60195 | 31109 ft | 550 kts | 57° |
| 2026-05-07 19:45 | -33.27316 | 152.68225 | 31089 ft | 548 kts | 57° |
| 2026-05-07 19:45 | -33.23685 | 152.76212 | 31090 ft | 545 kts | 57° |
| 2026-05-07 19:46 | -33.20099 | 152.84103 | 31113 ft | 543 kts | 57° |
| 2026-05-07 19:46 | -33.16499 | 152.92024 | 31093 ft | 542 kts | 57° |
| 2026-05-07 19:47 | -33.12904 | 152.99931 | 31073 ft | 541 kts | 57° |
| 2026-05-07 19:47 | -33.09323 | 153.07807 | 31083 ft | 539 kts | 57° |
| 2026-05-07 19:48 | -33.05751 | 153.15661 | 31096 ft | 539 kts | 57° |
| 2026-05-07 19:48 | -33.02170 | 153.23532 | 31094 ft | 540 kts | 57° |
| 2026-05-07 19:49 | -32.98612 | 153.31346 | 31082 ft | 540 kts | 57° |
| 2026-05-07 19:49 | -32.95050 | 153.39164 | 31078 ft | 541 kts | 57° |
| 2026-05-07 19:50 | -32.91458 | 153.47043 | 31093 ft | 542 kts | 57° |
| 2026-05-07 19:50 | -32.87860 | 153.54925 | 31080 ft | 542 kts | 57° |
| 2026-05-07 19:51 | -32.84253 | 153.62823 | 31068 ft | 543 kts | 57° |
| 2026-05-07 19:51 | -32.80647 | 153.70716 | 31066 ft | 542 kts | 57° |
| 2026-05-07 19:52 | -32.77052 | 153.78583 | 31074 ft | 541 kts | 57° |
| 2026-05-07 19:52 | -32.73457 | 153.86445 | 31064 ft | 541 kts | 57° |
| 2026-05-07 19:53 | -32.69870 | 153.94291 | 31069 ft | 540 kts | 57° |
| 2026-05-07 19:53 | -32.66306 | 154.02084 | 31027 ft | 540 kts | 57° |
| 2026-05-07 19:54 | -32.62729 | 154.09902 | 31072 ft | 539 kts | 57° |
| 2026-05-07 19:54 | -32.59163 | 154.17694 | 31068 ft | 538 kts | 57° |
| 2026-05-07 19:55 | -32.55593 | 154.25496 | 31067 ft | 538 kts | 57° |
| 2026-05-07 19:55 | -32.52019 | 154.33300 | 31060 ft | 538 kts | 57° |
| 2026-05-07 19:56 | -32.48446 | 154.41100 | 31053 ft | 538 kts | 57° |
| 2026-05-07 19:56 | -32.44874 | 154.48895 | 31058 ft | 538 kts | 57° |
| 2026-05-07 19:57 | -32.41160 | 154.56360 | 31043 ft | 524 kts | 42° |
| 2026-05-07 19:57 | -32.38486 | 154.59123 | 31065 ft | 503 kts | 22° |
| 2026-05-07 19:57 | -32.35335 | 154.60750 | 30934 ft | 489 kts | 6° |
| 2026-05-07 19:58 | -32.32016 | 154.61396 | 30422 ft | 477 kts | 354° |
| 2026-05-07 19:58 | -32.28751 | 154.61246 | 29885 ft | 461 kts | 344° |
| 2026-05-07 19:58 | -32.25665 | 154.60484 | 29339 ft | 446 kts | 335° |
| 2026-05-07 19:58 | -32.22826 | 154.59164 | 28776 ft | 431 kts | 325° |
| 2026-05-07 19:59 | -32.20343 | 154.57281 | 28233 ft | 416 kts | 314° |
| 2026-05-07 19:59 | -32.18353 | 154.54892 | 27698 ft | 403 kts | 302° |
| 2026-05-07 19:59 | -32.16912 | 154.52111 | 27189 ft | 392 kts | 291° |
| 2026-05-07 19:59 | -32.16008 | 154.49115 | 26678 ft | 385 kts | 282° |
| 2026-05-07 20:00 | -32.15514 | 154.46080 | 26204 ft | 380 kts | 277° |
| 2026-05-07 20:00 | -32.15199 | 154.42963 | 25710 ft | 376 kts | 274° |
| 2026-05-07 20:00 | -32.15167 | 154.39893 | 25219 ft | 373 kts | 265° |
| 2026-05-07 20:00 | -32.15792 | 154.36988 | 24722 ft | 371 kts | 248° |
| 2026-05-07 20:01 | -32.16888 | 154.34267 | 24283 ft | 365 kts | 249° |
| 2026-05-07 20:01 | -32.17874 | 154.31516 | 23830 ft | 364 kts | 251° |
| 2026-05-07 20:01 | -32.18813 | 154.28734 | 23316 ft | 365 kts | 251° |
| 2026-05-07 20:01 | -32.19762 | 154.25952 | 22788 ft | 366 kts | 248° |
| 2026-05-07 20:02 | -32.20946 | 154.23279 | 22271 ft | 368 kts | 243° |
| 2026-05-07 20:02 | -32.22337 | 154.20739 | 21783 ft | 369 kts | 238° |
| 2026-05-07 20:02 | -32.23925 | 154.18344 | 21283 ft | 369 kts | 234° |
| 2026-05-07 20:02 | -32.25537 | 154.15997 | 20780 ft | 366 kts | 234° |
| 2026-05-07 20:03 | -32.27103 | 154.13711 | 20292 ft | 364 kts | 234° |
| 2026-05-07 20:03 | -32.28689 | 154.11393 | 19809 ft | 361 kts | 234° |
| 2026-05-07 20:03 | -32.30256 | 154.09096 | 19341 ft | 359 kts | 233° |
| 2026-05-07 20:03 | -32.31806 | 154.06822 | 18872 ft | 357 kts | 233° |
| 2026-05-07 20:04 | -32.33380 | 154.04509 | 18378 ft | 355 kts | 232° |
| 2026-05-07 20:04 | -32.34900 | 154.02272 | 17865 ft | 353 kts | 232° |
| 2026-05-07 20:04 | -32.36434 | 154.00014 | 17340 ft | 351 kts | 232° |
| 2026-05-07 20:04 | -32.37961 | 153.97763 | 16834 ft | 349 kts | 232° |
| 2026-05-07 20:05 | -32.39478 | 153.95527 | 16336 ft | 348 kts | 232° |
| 2026-05-07 20:05 | -32.40987 | 153.93300 | 15850 ft | 346 kts | 232° |
| 2026-05-07 20:05 | -32.42489 | 153.91081 | 15362 ft | 344 kts | 231° |
| 2026-05-07 20:05 | -32.43971 | 153.88890 | 14886 ft | 343 kts | 231° |
| 2026-05-07 20:06 | -32.45460 | 153.86690 | 14409 ft | 341 kts | 231° |
| 2026-05-07 20:06 | -32.46819 | 153.84432 | 13932 ft | 340 kts | 238° |
| 2026-05-07 20:06 | -32.47921 | 153.81948 | 13422 ft | 339 kts | 243° |
| 2026-05-07 20:06 | -32.48826 | 153.79411 | 12908 ft | 339 kts | 248° |
| 2026-05-07 20:07 | -32.49598 | 153.76779 | 12406 ft | 338 kts | 249° |
| 2026-05-07 20:07 | -32.50348 | 153.74136 | 11896 ft | 337 kts | 249° |
| 2026-05-07 20:07 | -32.51086 | 153.71515 | 11408 ft | 336 kts | 249° |
| 2026-05-07 20:07 | -32.51824 | 153.68893 | 10969 ft | 334 kts | 249° |
| 2026-05-07 20:08 | -32.52542 | 153.66341 | 10745 ft | 325 kts | 249° |
| 2026-05-07 20:08 | -32.53237 | 153.63874 | 10712 ft | 316 kts | 249° |
| 2026-05-07 20:08 | -32.53939 | 153.61392 | 10709 ft | 322 kts | 249° |
| 2026-05-07 20:08 | -32.54661 | 153.58846 | 10708 ft | 328 kts | 249° |
| 2026-05-07 20:09 | -32.55392 | 153.56269 | 10704 ft | 332 kts | 249° |
| 2026-05-07 20:09 | -32.56125 | 153.53681 | 10688 ft | 331 kts | 249° |
| 2026-05-07 20:09 | -32.56848 | 153.51121 | 10704 ft | 329 kts | 249° |
| 2026-05-07 20:10 | -32.58305 | 153.45964 | 10698 ft | 327 kts | 249° |
| 2026-05-07 20:10 | -32.58966 | 153.43623 | 10692 ft | 326 kts | 249° |
| 2026-05-07 20:10 | -32.59696 | 153.41034 | 10687 ft | 325 kts | 249° |
| 2026-05-07 20:10 | -32.60414 | 153.38487 | 10691 ft | 324 kts | 249° |
| 2026-05-07 20:11 | -32.61128 | 153.35950 | 10698 ft | 324 kts | 249° |
| 2026-05-07 20:11 | -32.61819 | 153.33497 | 10698 ft | 324 kts | 249° |
| 2026-05-07 20:11 | -32.62533 | 153.30958 | 10712 ft | 325 kts | 249° |
| 2026-05-07 20:11 | -32.63247 | 153.28416 | 10710 ft | 326 kts | 249° |
| 2026-05-07 20:12 | -32.63964 | 153.25862 | 10700 ft | 327 kts | 249° |
| 2026-05-07 20:12 | -32.64682 | 153.23304 | 10717 ft | 327 kts | 249° |
| 2026-05-07 20:12 | -32.65393 | 153.20766 | 10715 ft | 328 kts | 249° |
| 2026-05-07 20:12 | -32.66121 | 153.18164 | 10702 ft | 329 kts | 249° |
| 2026-05-07 20:13 | -32.66832 | 153.15623 | 10709 ft | 329 kts | 249° |
| 2026-05-07 20:13 | -32.67552 | 153.13046 | 10704 ft | 329 kts | 249° |
| 2026-05-07 20:13 | -32.68271 | 153.10469 | 10710 ft | 329 kts | 249° |
| 2026-05-07 20:13 | -32.68978 | 153.07932 | 10712 ft | 328 kts | 249° |
| 2026-05-07 20:14 | -32.69694 | 153.05365 | 10731 ft | 328 kts | 249° |
| 2026-05-07 20:14 | -32.70410 | 153.02790 | 10708 ft | 328 kts | 249° |
| 2026-05-07 20:14 | -32.71124 | 153.00224 | 10715 ft | 327 kts | 249° |
| 2026-05-07 20:14 | -32.71837 | 152.97658 | 10711 ft | 326 kts | 249° |
| 2026-05-07 20:15 | -32.72549 | 152.95096 | 10714 ft | 325 kts | 249° |
| 2026-05-07 20:15 | -32.73255 | 152.92550 | 10716 ft | 324 kts | 249° |
| 2026-05-07 20:15 | -32.73958 | 152.90013 | 10727 ft | 324 kts | 249° |
| 2026-05-07 20:15 | -32.74662 | 152.87471 | 10719 ft | 324 kts | 249° |
| 2026-05-07 20:16 | -32.75364 | 152.84933 | 10713 ft | 323 kts | 249° |
| 2026-05-07 20:16 | -32.76063 | 152.82406 | 10712 ft | 323 kts | 249° |
| 2026-05-07 20:16 | -32.76766 | 152.79863 | 10717 ft | 323 kts | 249° |
| 2026-05-07 20:16 | -32.77455 | 152.77366 | 10719 ft | 323 kts | 249° |
| 2026-05-07 20:17 | -32.78156 | 152.74823 | 10732 ft | 324 kts | 249° |
| 2026-05-07 20:17 | -32.78857 | 152.72279 | 10731 ft | 324 kts | 249° |
| 2026-05-07 20:17 | -32.79559 | 152.69730 | 10728 ft | 325 kts | 249° |
| 2026-05-07 20:17 | -32.80262 | 152.67174 | 10720 ft | 326 kts | 249° |
| 2026-05-07 20:18 | -32.80965 | 152.64616 | 10720 ft | 326 kts | 249° |
| 2026-05-07 20:18 | -32.81668 | 152.62052 | 10733 ft | 326 kts | 249° |
| 2026-05-07 20:18 | -32.82371 | 152.59489 | 10732 ft | 326 kts | 249° |
| 2026-05-07 20:18 | -32.83065 | 152.56957 | 10731 ft | 326 kts | 249° |
| 2026-05-07 20:19 | -32.83768 | 152.54390 | 10728 ft | 326 kts | 249° |
| 2026-05-07 20:19 | -32.84466 | 152.51835 | 10724 ft | 326 kts | 249° |
| 2026-05-07 20:19 | -32.85168 | 152.49268 | 10728 ft | 326 kts | 249° |
| 2026-05-07 20:19 | -32.85868 | 152.46702 | 10727 ft | 325 kts | 249° |
| 2026-05-07 20:20 | -32.86567 | 152.44140 | 10732 ft | 325 kts | 249° |
| 2026-05-07 20:20 | -32.87264 | 152.41582 | 10736 ft | 325 kts | 249° |
| 2026-05-07 20:20 | -32.87960 | 152.39027 | 10744 ft | 325 kts | 249° |
| 2026-05-07 20:20 | -32.88656 | 152.36469 | 10740 ft | 325 kts | 249° |
| 2026-05-07 20:21 | -32.89351 | 152.33909 | 10736 ft | 325 kts | 249° |
| 2026-05-07 20:21 | -32.90045 | 152.31355 | 10740 ft | 324 kts | 249° |
| 2026-05-07 20:21 | -32.90735 | 152.28812 | 10739 ft | 324 kts | 249° |
| 2026-05-07 20:21 | -32.91426 | 152.26262 | 10709 ft | 323 kts | 249° |
| 2026-05-07 20:22 | -32.92103 | 152.23760 | 10493 ft | 321 kts | 249° |
| 2026-05-07 20:22 | -32.92787 | 152.21232 | 10191 ft | 320 kts | 249° |
| 2026-05-07 20:22 | -32.93461 | 152.18737 | 10165 ft | 322 kts | 249° |
| 2026-05-07 20:22 | -32.94150 | 152.16191 | 10160 ft | 323 kts | 249° |
| 2026-05-07 20:23 | -32.94838 | 152.13643 | 10159 ft | 323 kts | 249° |
| 2026-05-07 20:23 | -32.95524 | 152.11094 | 10152 ft | 322 kts | 249° |
| 2026-05-07 20:23 | -32.96206 | 152.08561 | 10149 ft | 321 kts | 249° |
| 2026-05-07 20:23 | -32.96860 | 152.06133 | 10144 ft | 320 kts | 249° |
| 2026-05-07 20:24 | -32.97537 | 152.03614 | 10141 ft | 320 kts | 249° |
| 2026-05-07 20:24 | -32.97985 | 152.01948 | 10143 ft | 319 kts | 249° |
| 2026-05-07 20:24 | -32.98660 | 151.99432 | 10145 ft | 319 kts | 249° |
| 2026-05-07 20:24 | -32.99333 | 151.96923 | 10145 ft | 319 kts | 249° |
| 2026-05-07 20:25 | -33.00009 | 151.94402 | 10148 ft | 319 kts | 249° |
| 2026-05-07 20:25 | -33.00904 | 151.91059 | 10137 ft | 320 kts | 249° |
| 2026-05-07 20:25 | -33.01563 | 151.88595 | 10145 ft | 320 kts | 249° |
| 2026-05-07 20:25 | -33.02002 | 151.86953 | 10157 ft | 321 kts | 249° |
| 2026-05-07 20:26 | -33.02680 | 151.84414 | 10157 ft | 322 kts | 249° |
| 2026-05-07 20:26 | -33.03360 | 151.81867 | 10155 ft | 323 kts | 249° |
| 2026-05-07 20:26 | -33.04001 | 151.79460 | 10161 ft | 323 kts | 249° |
| 2026-05-07 20:26 | -33.04663 | 151.76976 | 10161 ft | 324 kts | 249° |
| 2026-05-07 20:27 | -33.05355 | 151.74374 | 10147 ft | 324 kts | 249° |
| 2026-05-07 20:27 | -33.06016 | 151.71887 | 10147 ft | 324 kts | 249° |
| 2026-05-07 20:27 | -33.06696 | 151.69324 | 10146 ft | 324 kts | 249° |
| 2026-05-07 20:27 | -33.07378 | 151.66756 | 10151 ft | 324 kts | 249° |
| 2026-05-07 20:28 | -33.08058 | 151.64189 | 10163 ft | 324 kts | 249° |
| 2026-05-07 20:28 | -33.08721 | 151.61684 | 10145 ft | 324 kts | 249° |
| 2026-05-07 20:28 | -33.09390 | 151.59156 | 10145 ft | 323 kts | 249° |
| 2026-05-07 20:28 | -33.10045 | 151.56680 | 10154 ft | 323 kts | 249° |
| 2026-05-07 20:29 | -33.10714 | 151.54145 | 10148 ft | 323 kts | 250° |
| 2026-05-07 20:29 | -33.11316 | 151.51862 | 10144 ft | 323 kts | 250° |
| 2026-05-07 20:29 | -33.11963 | 151.49406 | 10147 ft | 323 kts | 249° |
| 2026-05-07 20:29 | -33.12637 | 151.46851 | 10150 ft | 322 kts | 249° |
| 2026-05-07 20:30 | -33.13303 | 151.44322 | 10152 ft | 323 kts | 249° |
| 2026-05-07 20:30 | -33.13930 | 151.41938 | 10154 ft | 323 kts | 249° |
| 2026-05-07 20:30 | -33.14589 | 151.39434 | 10157 ft | 323 kts | 249° |
| 2026-05-07 20:30 | -33.15213 | 151.37058 | 10152 ft | 323 kts | 249° |
| 2026-05-07 20:31 | -33.15817 | 151.34750 | 10146 ft | 323 kts | 250° |
| 2026-05-07 20:31 | -33.16462 | 151.32289 | 10147 ft | 323 kts | 249° |
| 2026-05-07 20:31 | -33.16889 | 151.30658 | 10156 ft | 323 kts | 249° |
| 2026-05-07 20:31 | -33.17546 | 151.28145 | 10162 ft | 323 kts | 249° |
| 2026-05-07 20:32 | -33.18155 | 151.25817 | 10166 ft | 324 kts | 249° |
| 2026-05-07 20:32 | -33.18824 | 151.23253 | 10158 ft | 324 kts | 249° |
| 2026-05-07 20:32 | -33.19455 | 151.20832 | 10165 ft | 324 kts | 250° |
| 2026-05-07 20:32 | -33.20121 | 151.18281 | 10173 ft | 325 kts | 250° |
| 2026-05-07 20:33 | -33.20761 | 151.15822 | 10161 ft | 325 kts | 250° |
| 2026-05-07 20:33 | -33.21410 | 151.13328 | 10163 ft | 325 kts | 250° |
| 2026-05-07 20:33 | -33.22053 | 151.10889 | 10150 ft | 321 kts | 247° |
| 2026-05-07 20:33 | -33.23115 | 151.08609 | 10169 ft | 316 kts | 228° |
| 2026-05-07 20:34 | -33.24763 | 151.06969 | 10183 ft | 321 kts | 212° |
| 2026-05-07 20:34 | -33.26828 | 151.05875 | 10164 ft | 326 kts | 200° |
| 2026-05-07 20:34 | -33.29015 | 151.05325 | 10031 ft | 330 kts | 186° |
| 2026-05-07 20:34 | -33.31318 | 151.05586 | 9765 ft | 336 kts | 174° |
| 2026-05-07 20:35 | -33.33619 | 151.06140 | 9521 ft | 335 kts | 174° |
| 2026-05-07 20:35 | -33.35903 | 151.06665 | 9243 ft | 333 kts | 174° |
| 2026-05-07 20:35 | -33.38016 | 151.07117 | 9006 ft | 331 kts | 175° |
| 2026-05-07 20:35 | -33.40265 | 151.07565 | 8755 ft | 329 kts | 175° |
| 2026-05-07 20:36 | -33.42473 | 151.07993 | 8508 ft | 327 kts | 175° |
| 2026-05-07 20:36 | -33.44718 | 151.08424 | 8262 ft | 326 kts | 175° |
| 2026-05-07 20:36 | -33.46954 | 151.08853 | 8008 ft | 325 kts | 174° |
| 2026-05-07 20:36 | -33.49169 | 151.09279 | 7751 ft | 324 kts | 174° |
| 2026-05-07 20:37 | -33.51341 | 151.09697 | 7503 ft | 323 kts | 174° |
| 2026-05-07 20:37 | -33.53258 | 151.10067 | 7280 ft | 322 kts | 174° |
| 2026-05-07 20:37 | -33.55450 | 151.10489 | 7055 ft | 321 kts | 173° |
| 2026-05-07 20:37 | -33.57528 | 151.10889 | 6812 ft | 320 kts | 173° |
| 2026-05-07 20:38 | -33.59775 | 151.11322 | 6564 ft | 319 kts | 173° |
| 2026-05-07 20:38 | -33.61951 | 151.11742 | 6316 ft | 318 kts | 173° |
| 2026-05-07 20:38 | -33.64136 | 151.12173 | 6058 ft | 318 kts | 173° |
| 2026-05-07 20:38 | -33.66256 | 151.12592 | 5803 ft | 317 kts | 173° |
| 2026-05-07 20:39 | -33.68313 | 151.13000 | 5574 ft | 316 kts | 173° |
| 2026-05-07 20:39 | -33.70366 | 151.13405 | 5331 ft | 315 kts | 173° |
| 2026-05-07 20:39 | -33.72545 | 151.13829 | 5077 ft | 314 kts | 173° |
| 2026-05-07 20:39 | -33.74626 | 151.14232 | 4833 ft | 313 kts | 173° |
| 2026-05-07 20:40 | -33.76786 | 151.14651 | 4568 ft | 312 kts | 173° |
| 2026-05-07 20:40 | -33.78932 | 151.15067 | 4309 ft | 312 kts | 173° |
| 2026-05-07 20:40 | -33.81009 | 151.15402 | 4040 ft | 304 kts | 180° |
| 2026-05-07 20:40 | -33.82998 | 151.15046 | 3781 ft | 300 kts | 197° |
| 2026-05-07 20:41 | -33.84939 | 151.14395 | 3580 ft | 309 kts | 195° |
| 2026-05-07 20:41 | -33.87022 | 151.13779 | 3404 ft | 307 kts | 194° |
| 2026-05-07 20:41 | -33.88987 | 151.13219 | 3411 ft | 293 kts | 195° |
| 2026-05-07 20:41 | -33.90918 | 151.12668 | 3393 ft | 279 kts | 195° |
| 2026-05-07 20:42 | -33.92735 | 151.12147 | 3363 ft | 266 kts | 195° |
| 2026-05-07 20:42 | -33.94480 | 151.11644 | 3353 ft | 251 kts | 195° |
| 2026-05-07 20:42 | -33.95977 | 151.11214 | 3390 ft | 235 kts | 195° |
| 2026-05-07 20:42 | -33.97552 | 151.10758 | 3365 ft | 233 kts | 195° |
| 2026-05-07 20:43 | -33.99048 | 151.10324 | 3379 ft | 233 kts | 195° |
| 2026-05-07 20:43 | -34.00483 | 151.09909 | 3375 ft | 233 kts | 195° |
| 2026-05-07 20:43 | -34.01938 | 151.09488 | 3364 ft | 233 kts | 195° |
| 2026-05-07 20:43 | -34.03557 | 151.09020 | 3372 ft | 234 kts | 195° |
| 2026-05-07 20:44 | -34.04963 | 151.08612 | 3383 ft | 234 kts | 195° |
| 2026-05-07 20:44 | -34.06414 | 151.08193 | 3388 ft | 235 kts | 195° |
| 2026-05-07 20:44 | -34.07402 | 151.07912 | 3369 ft | 234 kts | 193° |
| 2026-05-07 20:44 | -34.09113 | 151.07954 | 3357 ft | 237 kts | 171° |
| 2026-05-07 20:45 | -34.10626 | 151.08396 | 3374 ft | 238 kts | 171° |
| 2026-05-07 20:45 | -34.12236 | 151.08822 | 3394 ft | 237 kts | 172° |
| 2026-05-07 20:45 | -34.13786 | 151.09223 | 3381 ft | 236 kts | 172° |
| 2026-05-07 20:45 | -34.15380 | 151.09638 | 3379 ft | 235 kts | 172° |
| 2026-05-07 20:46 | -34.16917 | 151.10037 | 3376 ft | 234 kts | 172° |
| 2026-05-07 20:46 | -34.18445 | 151.10650 | 3331 ft | 240 kts | 150° |
| 2026-05-07 20:46 | -34.19530 | 151.12238 | 3352 ft | 253 kts | 117° |
| 2026-05-07 20:46 | -34.19911 | 151.14346 | 3374 ft | 263 kts | 96° |
| 2026-05-07 20:47 | -34.19644 | 151.16547 | 3363 ft | 273 kts | 72° |
| 2026-05-07 20:47 | -34.19016 | 151.18371 | 3397 ft | 276 kts | 69° |
| 2026-05-07 20:47 | -34.18249 | 151.20507 | 3387 ft | 273 kts | 64° |
| 2026-05-07 20:47 | -34.17134 | 151.22167 | 3228 ft | 267 kts | 36° |
| 2026-05-07 20:48 | -34.15565 | 151.22945 | 3170 ft | 234 kts | 1° |
| 2026-05-07 20:48 | -34.14058 | 151.22780 | 3115 ft | 201 kts | 341° |
| 2026-05-07 20:48 | -34.12795 | 151.22441 | 3131 ft | 185 kts | 342° |
| 2026-05-07 20:48 | -34.11614 | 151.22122 | 3113 ft | 182 kts | 341° |
| 2026-05-07 20:49 | -34.10366 | 151.21785 | 2862 ft | 185 kts | 341° |
| 2026-05-07 20:49 | -34.09162 | 151.21464 | 2620 ft | 181 kts | 341° |
| 2026-05-07 20:49 | -34.07938 | 151.21139 | 2376 ft | 175 kts | 340° |
| 2026-05-07 20:49 | -34.06772 | 151.20828 | 2153 ft | 174 kts | 339° |
| 2026-05-07 20:50 | -34.05631 | 151.20524 | 1936 ft | 175 kts | 338° |
| 2026-05-07 20:50 | -34.04596 | 151.20249 | 1747 ft | 174 kts | 338° |
| 2026-05-07 20:50 | -34.03492 | 151.19957 | 1509 ft | 168 kts | 339° |
| 2026-05-07 20:50 | -34.02405 | 151.19669 | 1257 ft | 165 kts | 339° |
| 2026-05-07 20:51 | -34.01286 | 151.19371 | 1063 ft | 164 kts | 339° |
| 2026-05-07 20:51 | -34.00175 | 151.19075 | 828 ft | 164 kts | 341° |
| 2026-05-07 20:51 | -33.99096 | 151.18789 | 609 ft | 155 kts | 341° |
| 2026-05-07 20:51 | -33.98244 | 151.18559 | 423 ft | 152 kts | 342° |
| 2026-05-07 20:52 | -33.97204 | 151.18271 | 212 ft | 149 kts | 343° |
| 2026-05-07 20:52 | -33.96266 | 151.18030 | 84 ft | 151 kts | 346° |
| 2026-05-07 20:52 | -33.95392 | 151.17806 | 27 ft | 134 kts | 345° |
| 2026-05-07 20:52 | -33.94895 | 151.17661 | 27 ft | 66 kts | 348° |
| 2026-05-07 20:53 | -33.94632 | 151.17588 | 29 ft | 36 kts | 341° |
| 2026-05-07 20:53 | -33.94430 | 151.17466 | 28 ft | 31 kts | 321° |
| 2026-05-07 20:53 | -33.94388 | 151.17421 | 29 ft | 0 kts | 317° |
| 2026-05-07 20:55 | -33.94366 | 151.17397 | 30 ft | 10 kts | 316° |
| 2026-05-07 20:55 | -33.94336 | 151.17327 | 30 ft | 10 kts | 279° |
| 2026-05-07 20:56 | -33.94338 | 151.17279 | 30 ft | 9 kts | 257° |
| 2026-05-07 20:56 | -33.94348 | 151.17240 | 30 ft | 4 kts | 254° |
| 2026-05-07 20:56 | -33.94353 | 151.17214 | 30 ft | 7 kts | 255° |
| 2026-05-07 20:56 | -33.94376 | 151.17114 | 30 ft | 16 kts | 255° |
| 2026-05-07 20:57 | -33.94403 | 151.16989 | 28 ft | 16 kts | 261° |
| 2026-05-07 20:57 | -33.94376 | 151.16909 | 28 ft | 0 kts | 333° |
| 2026-05-07 20:57 | -33.94329 | 151.16891 | 28 ft | 18 kts | 345° |
| 2026-05-07 20:57 | -33.94185 | 151.16851 | 27 ft | 21 kts | 346° |
| 2026-05-07 20:58 | -33.94053 | 151.16814 | 31 ft | 21 kts | 343° |
| 2026-05-07 20:58 | -33.93944 | 151.16782 | 28 ft | 5 kts | 10° |
| 2026-05-07 20:58 | -33.93902 | 151.16835 | 29 ft | 12 kts | 70° |
| 2026-05-07 20:58 | -33.93897 | 151.16854 | 30 ft | 0 kts | 73° |